Time,TemperatureF,DewpointF,PressureIn,WindDirection,WindDirectionDegrees,WindSpeedMPH,WindSpeedGustMPH,Humidity,HourlyPrecipIn,Conditions,Clouds,dailyrainin,SoftwareType,DateUTC
2013-12-17 00:00:00,30.5,28.7,30.34,North,5,0.0,0.0,93,0.00,,,0.00,Wunderground v.1.15,2013-12-17 08:00:00,
2013-12-17 00:02:00,30.4,28.6,30.34,North,5,0.0,0.0,93,0.00,,,0.00,Wunderground v.1.15,2013-12-17 08:02:00,
2013-12-17 00:03:00,30.3,28.5,30.34,North,5,0.0,0.0,93,0.00,,,0.00,Wunderground v.1.15,2013-12-17 08:03:00,
2013-12-17 00:04:00,30.1,28.1,30.34,North,5,0.0,0.0,92,0.00,,,0.00,Wunderground v.1.15,2013-12-17 08:04:00,
2013-12-17 00:07:00,29.7,27.4,30.34,North,5,0.0,0.0,91,0.00,,,0.00,Wunderground v.1.15,2013-12-17 08:07:00,
2013-12-17 00:08:00,29.5,27.2,30.34,North,5,0.0,0.0,91,0.00,,,0.00,Wunderground v.1.15,2013-12-17 08:08:00,
2013-12-17 00:10:00,29.1,26.5,30.34,North,5,0.0,0.0,90,0.00,,,0.00,Wunderground v.1.15,2013-12-17 08:10:00,
2013-12-17 00:12:00,28.8,26.2,30.34,North,5,1.0,1.0,90,0.00,,,0.00,Wunderground v.1.15,2013-12-17 08:12:00,
2013-12-17 00:13:00,28.7,26.1,30.34,North,5,1.0,1.0,90,0.00,,,0.00,Wunderground v.1.15,2013-12-17 08:13:00,
2013-12-17 00:16:00,28.6,26.3,30.34,North,5,2.0,2.0,91,0.00,,,0.00,Wunderground v.1.15,2013-12-17 08:16:00,
2013-12-17 00:18:00,28.6,26.3,30.34,North,5,1.0,2.0,91,0.00,,,0.00,Wunderground v.1.15,2013-12-17 08:18:00,
2013-12-17 00:19:00,28.6,26.3,30.34,North,5,1.0,1.0,91,0.00,,,0.00,Wunderground v.1.15,2013-12-17 08:19:00,
2013-12-17 00:20:00,28.6,26.3,30.34,North,5,1.0,1.0,91,0.00,,,0.00,Wunderground v.1.15,2013-12-17 08:20:00,
2013-12-17 00:21:00,28.6,26.3,30.34,North,5,1.0,1.0,91,0.00,,,0.00,Wunderground v.1.15,2013-12-17 08:21:00,
2013-12-17 00:22:00,28.6,26.3,30.34,North,5,1.0,1.0,91,0.00,,,0.00,Wunderground v.1.15,2013-12-17 08:22:00,
2013-12-17 00:24:00,28.6,26.3,30.34,North,5,2.0,2.0,91,0.00,,,0.00,Wunderground v.1.15,2013-12-17 08:24:00,
2013-12-17 00:27:00,28.7,26.4,30.34,North,5,1.0,2.0,91,0.00,,,0.00,Wunderground v.1.15,2013-12-17 08:27:00,
2013-12-17 00:28:00,28.7,26.4,30.34,North,5,2.0,2.0,91,0.00,,,0.00,Wunderground v.1.15,2013-12-17 08:28:00,
2013-12-17 00:29:00,28.7,26.4,30.34,North,5,0.0,1.0,91,0.00,,,0.00,Wunderground v.1.15,2013-12-17 08:29:00,
2013-12-17 00:31:00,28.8,26.5,30.34,North,5,2.0,2.0,91,0.00,,,0.00,Wunderground v.1.15,2013-12-17 08:31:00,
2013-12-17 00:32:00,28.9,26.6,30.34,North,5,0.0,2.0,91,0.00,,,0.00,Wunderground v.1.15,2013-12-17 08:32:00,
2013-12-17 00:33:00,29.0,27.0,30.33,North,5,1.0,2.0,92,0.00,,,0.00,Wunderground v.1.15,2013-12-17 08:33:00,
2013-12-17 00:34:00,29.0,27.0,30.34,North,5,2.0,2.0,92,0.00,,,0.00,Wunderground v.1.15,2013-12-17 08:34:00,
2013-12-17 00:38:00,29.7,27.7,30.34,North,5,2.0,2.0,92,0.00,,,0.00,Wunderground v.1.15,2013-12-17 08:38:00,
2013-12-17 00:40:00,29.9,28.1,30.33,North,5,1.0,2.0,93,0.00,,,0.00,Wunderground v.1.15,2013-12-17 08:40:00,
2013-12-17 00:42:00,29.8,28.0,30.33,North,5,0.0,2.0,93,0.00,,,0.00,Wunderground v.1.15,2013-12-17 08:42:00,
2013-12-17 00:46:00,29.2,26.9,30.33,North,5,1.0,2.0,91,0.00,,,0.00,Wunderground v.1.15,2013-12-17 08:46:00,
2013-12-17 00:47:00,29.0,26.7,30.33,North,5,1.0,2.0,91,0.00,,,0.00,Wunderground v.1.15,2013-12-17 08:47:00,
2013-12-17 00:48:00,29.0,26.7,30.33,North,5,1.0,2.0,91,0.00,,,0.00,Wunderground v.1.15,2013-12-17 08:48:00,
2013-12-17 00:50:00,29.2,27.2,30.33,North,5,1.0,1.0,92,0.00,,,0.00,Wunderground v.1.15,2013-12-17 08:50:00,
2013-12-17 11:17:00,29.0,27.5,30.15,NNW,329,3.0,3.0,94,0.00,,,0.00,Wunderground v.1.15,2013-12-17 19:17:00,
2013-12-17 11:18:00,29.1,27.6,30.15,NNW,329,3.0,4.0,94,0.00,,,0.00,Wunderground v.1.15,2013-12-17 19:18:00,
2013-12-17 11:22:00,29.3,27.8,30.15,NNW,329,1.0,4.0,94,0.00,,,0.00,Wunderground v.1.15,2013-12-17 19:22:00,
2013-12-17 11:23:00,29.3,27.8,30.15,NNW,329,2.0,4.0,94,0.00,,,0.00,Wunderground v.1.15,2013-12-17 19:23:00,
2013-12-17 11:24:00,29.3,27.8,30.15,NNW,329,3.0,4.0,94,0.00,,,0.00,Wunderground v.1.15,2013-12-17 19:24:00,
2013-12-17 11:28:00,29.3,27.8,30.15,NNW,329,3.0,4.0,94,0.00,,,0.00,Wunderground v.1.15,2013-12-17 19:28:00,
2013-12-17 11:29:00,29.4,27.9,30.14,NNW,329,3.0,4.0,94,0.00,,,0.00,Wunderground v.1.15,2013-12-17 19:29:00,
2013-12-17 11:33:00,29.5,28.0,30.14,NNW,329,2.0,3.0,94,0.00,,,0.00,Wunderground v.1.15,2013-12-17 19:33:00,
2013-12-17 11:34:00,29.6,28.1,30.14,NNW,329,3.0,4.0,94,0.00,,,0.00,Wunderground v.1.15,2013-12-17 19:34:00,
2013-12-17 11:35:00,29.6,28.1,30.14,NNW,329,2.0,4.0,94,0.00,,,0.00,Wunderground v.1.15,2013-12-17 19:35:00,
2013-12-17 11:38:00,29.5,28.0,30.14,NNW,329,3.0,4.0,94,0.00,,,0.00,Wunderground v.1.15,2013-12-17 19:38:00,
2013-12-17 11:39:00,29.4,27.9,30.14,NNW,329,2.0,4.0,94,0.00,,,0.00,Wunderground v.1.15,2013-12-17 19:39:00,
2013-12-17 11:40:00,29.4,27.9,30.14,NNW,329,2.0,2.0,94,0.00,,,0.00,Wunderground v.1.15,2013-12-17 19:40:00,
2013-12-17 11:43:00,29.4,27.9,30.14,NNW,329,0.0,3.0,94,0.00,,,0.00,Wunderground v.1.15,2013-12-17 19:43:00,
2013-12-17 11:44:00,29.5,28.0,30.14,NNW,329,0.0,3.0,94,0.00,,,0.00,Wunderground v.1.15,2013-12-17 19:44:00,
2013-12-17 11:45:00,29.5,28.0,30.14,NNW,329,1.0,3.0,94,0.00,,,0.00,Wunderground v.1.15,2013-12-17 19:45:00,
2013-12-17 11:48:00,29.6,28.1,30.14,NNW,329,2.0,3.0,94,0.00,,,0.00,Wunderground v.1.15,2013-12-17 19:48:00,
2013-12-17 11:49:00,29.6,28.1,30.14,NNW,329,1.0,2.0,94,0.00,,,0.00,Wunderground v.1.15,2013-12-17 19:49:00,
2013-12-17 11:50:00,29.6,28.1,30.14,NNW,329,2.0,2.0,94,0.00,,,0.00,Wunderground v.1.15,2013-12-17 19:50:00,
2013-12-17 11:54:00,29.7,28.2,30.13,NNW,329,0.0,2.0,94,0.00,,,0.00,Wunderground v.1.15,2013-12-17 19:54:00,
2013-12-17 11:55:00,29.8,28.3,30.13,NNW,329,2.0,4.0,94,0.00,,,0.00,Wunderground v.1.15,2013-12-17 19:55:00,
2013-12-17 11:56:00,29.8,28.3,30.13,NNW,329,2.0,4.0,94,0.00,,,0.00,Wunderground v.1.15,2013-12-17 19:56:00,
2013-12-17 11:59:00,29.8,28.3,30.13,NNW,329,2.0,2.0,94,0.00,,,0.00,Wunderground v.1.15,2013-12-17 19:59:00,
2013-12-17 12:00:00,29.9,28.4,30.13,NNW,329,0.0,3.0,94,0.00,,,0.01,Wunderground v.1.15,2013-12-17 20:00:00,
2013-12-17 12:01:00,29.9,28.4,30.13,NNW,329,2.0,3.0,94,0.00,,,0.01,Wunderground v.1.15,2013-12-17 20:01:00,
2013-12-17 12:04:00,30.1,28.6,30.13,NNW,329,0.0,3.0,94,0.00,,,0.01,Wunderground v.1.15,2013-12-17 20:04:00,
2013-12-17 12:05:00,30.3,28.8,30.13,NNW,329,1.0,3.0,94,0.00,,,0.01,Wunderground v.1.15,2013-12-17 20:05:00,
2013-12-17 12:06:00,30.3,28.8,30.13,NNW,329,1.0,3.0,94,0.00,,,0.01,Wunderground v.1.15,2013-12-17 20:06:00,
2013-12-17 12:09:00,30.3,28.8,30.12,NNW,329,0.0,1.0,94,0.00,,,0.01,Wunderground v.1.15,2013-12-17 20:09:00,
2013-12-17 12:10:00,30.3,28.8,30.13,NNW,329,1.0,2.0,94,0.00,,,0.01,Wunderground v.1.15,2013-12-17 20:10:00,
2013-12-17 12:11:00,30.4,28.9,30.13,NNW,329,2.0,3.0,94,0.00,,,0.01,Wunderground v.1.15,2013-12-17 20:11:00,
2013-12-17 12:14:00,30.4,28.9,30.12,NNW,329,1.0,3.0,94,0.00,,,0.01,Wunderground v.1.15,2013-12-17 20:14:00,
2013-12-17 12:15:00,30.4,28.9,30.12,NNW,329,1.0,3.0,94,0.00,,,0.01,Wunderground v.1.15,2013-12-17 20:15:00,
2013-12-17 12:16:00,30.4,28.9,30.12,NNW,329,0.0,3.0,94,0.00,,,0.01,Wunderground v.1.15,2013-12-17 20:16:00,
2013-12-17 12:17:00,30.4,28.9,30.12,NNW,329,1.0,3.0,94,0.00,,,0.01,Wunderground v.1.15,2013-12-17 20:17:00,
2013-12-17 12:19:00,30.6,29.1,30.12,NNW,329,2.0,2.0,94,0.00,,,0.01,Wunderground v.1.15,2013-12-17 20:19:00,
2013-12-17 12:20:00,30.6,29.1,30.12,NNW,329,0.0,2.0,94,0.00,,,0.01,Wunderground v.1.15,2013-12-17 20:20:00,
2013-12-17 12:21:00,30.6,29.1,30.12,NNW,329,0.0,2.0,94,0.00,,,0.01,Wunderground v.1.15,2013-12-17 20:21:00,
2013-12-17 12:22:00,30.8,29.3,30.12,NNW,329,1.0,2.0,94,0.00,,,0.01,Wunderground v.1.15,2013-12-17 20:22:00,
2013-12-17 12:24:00,30.8,29.5,30.12,NNW,329,0.0,3.0,95,0.00,,,0.01,Wunderground v.1.15,2013-12-17 20:24:00,
2013-12-17 12:25:00,30.8,29.5,30.12,NNW,329,2.0,3.0,95,0.00,,,0.01,Wunderground v.1.15,2013-12-17 20:25:00,
2013-12-17 12:26:00,30.8,29.5,30.11,NNW,329,0.0,3.0,95,0.00,,,0.01,Wunderground v.1.15,2013-12-17 20:26:00,
2013-12-17 12:28:00,30.9,29.4,30.11,NNW,329,0.0,3.0,94,0.00,,,0.01,Wunderground v.1.15,2013-12-17 20:28:00,
2013-12-17 12:29:00,30.9,29.4,30.11,NNW,329,0.0,1.0,94,0.00,,,0.01,Wunderground v.1.15,2013-12-17 20:29:00,
2013-12-17 12:30:00,30.9,29.4,30.11,NNW,329,0.0,1.0,94,0.00,,,0.01,Wunderground v.1.15,2013-12-17 20:30:00,
2013-12-17 12:31:00,30.9,29.4,30.11,NNW,329,0.0,1.0,94,0.00,,,0.01,Wunderground v.1.15,2013-12-17 20:31:00,
2013-12-17 12:32:00,31.1,29.6,30.11,NNW,329,0.0,1.0,94,0.00,,,0.01,Wunderground v.1.15,2013-12-17 20:32:00,
2013-12-17 12:33:00,31.3,29.8,30.11,NNW,329,0.0,1.0,94,0.00,,,0.01,Wunderground v.1.15,2013-12-17 20:33:00,
2013-12-17 12:34:00,31.4,30.1,30.11,NNW,329,0.0,1.0,95,0.00,,,0.01,Wunderground v.1.15,2013-12-17 20:34:00,
2013-12-17 12:35:00,31.4,30.1,30.11,NNW,329,0.0,1.0,95,0.00,,,0.01,Wunderground v.1.15,2013-12-17 20:35:00,
2013-12-17 12:36:00,31.4,30.1,30.11,NNW,329,1.0,2.0,95,0.00,,,0.01,Wunderground v.1.15,2013-12-17 20:36:00,
2013-12-17 12:37:00,31.5,30.2,30.11,NNW,329,2.0,3.0,95,0.00,,,0.01,Wunderground v.1.15,2013-12-17 20:37:00,
2013-12-17 12:38:00,31.4,30.1,30.11,NNW,329,0.0,3.0,95,0.00,,,0.01,Wunderground v.1.15,2013-12-17 20:38:00,
2013-12-17 12:40:00,31.4,30.1,30.11,NNW,329,0.0,2.0,95,0.00,,,0.01,Wunderground v.1.15,2013-12-17 20:40:00,
2013-12-17 12:41:00,31.3,30.0,30.11,NNW,329,0.0,2.0,95,0.00,,,0.01,Wunderground v.1.15,2013-12-17 20:41:00,
2013-12-17 12:42:00,31.3,29.8,30.11,NNW,329,0.0,2.0,94,0.00,,,0.01,Wunderground v.1.15,2013-12-17 20:42:00,
2013-12-17 12:44:00,31.2,29.7,30.11,NNW,329,0.0,2.0,94,0.00,,,0.01,Wunderground v.1.15,2013-12-17 20:44:00,
2013-12-17 12:45:00,31.2,29.7,30.11,NNW,329,0.0,2.0,94,0.00,,,0.01,Wunderground v.1.15,2013-12-17 20:45:00,
2013-12-17 12:46:00,31.3,29.8,30.11,NNW,329,0.0,2.0,94,0.00,,,0.01,Wunderground v.1.15,2013-12-17 20:46:00,
2013-12-17 12:47:00,31.4,29.9,30.11,NNW,329,0.0,2.0,94,0.00,,,0.01,Wunderground v.1.15,2013-12-17 20:47:00,
2013-12-17 12:49:00,31.4,29.9,30.11,NNW,329,0.0,0.0,94,0.00,,,0.01,Wunderground v.1.15,2013-12-17 20:49:00,
2013-12-17 12:50:00,31.4,29.9,30.11,NNW,329,0.0,0.0,94,0.00,,,0.01,Wunderground v.1.15,2013-12-17 20:50:00,
2013-12-17 12:51:00,31.4,29.9,30.10,NNW,329,0.0,0.0,94,0.00,,,0.01,Wunderground v.1.15,2013-12-17 20:51:00,
2013-12-17 12:54:00,31.9,30.6,30.11,NNW,329,0.0,0.0,95,0.00,,,0.01,Wunderground v.1.15,2013-12-17 20:54:00,
2013-12-17 12:55:00,32.0,30.7,30.11,NNW,329,0.0,1.0,95,0.00,,,0.01,Wunderground v.1.15,2013-12-17 20:55:00,
2013-12-17 12:56:00,32.0,30.7,30.10,NNW,329,0.0,1.0,95,0.00,,,0.01,Wunderground v.1.15,2013-12-17 20:56:00,
2013-12-17 12:59:00,32.0,30.7,30.10,NNW,329,0.0,0.0,95,0.00,,,0.01,Wunderground v.1.15,2013-12-17 20:59:00,
2013-12-17 13:00:00,31.9,30.6,30.10,NNW,329,1.0,3.0,95,0.00,,,0.01,Wunderground v.1.15,2013-12-17 21:00:00,
2013-12-17 13:01:00,31.9,30.4,30.10,NNW,329,0.0,3.0,94,0.00,,,0.01,Wunderground v.1.15,2013-12-17 21:01:00,
2013-12-17 13:02:00,31.9,30.4,30.10,NNW,329,0.0,3.0,94,0.00,,,0.01,Wunderground v.1.15,2013-12-17 21:02:00,
2013-12-17 13:04:00,31.8,30.3,30.10,NNW,329,1.0,3.0,94,0.00,,,0.01,Wunderground v.1.15,2013-12-17 21:04:00,
2013-12-17 13:05:00,31.7,30.2,30.10,NNW,329,0.0,3.0,94,0.00,,,0.01,Wunderground v.1.15,2013-12-17 21:05:00,
2013-12-17 13:06:00,31.7,30.2,30.10,NNW,329,0.0,3.0,94,0.00,,,0.01,Wunderground v.1.15,2013-12-17 21:06:00,
2013-12-17 13:07:00,31.7,30.2,30.10,NNW,329,0.0,3.0,94,0.00,,,0.01,Wunderground v.1.15,2013-12-17 21:07:00,
2013-12-17 13:10:00,31.7,30.2,30.10,NNW,329,0.0,1.0,94,0.00,,,0.01,Wunderground v.1.15,2013-12-17 21:10:00,
2013-12-17 13:11:00,31.7,30.2,30.10,NNW,329,0.0,1.0,94,0.00,,,0.01,Wunderground v.1.15,2013-12-17 21:11:00,
2013-12-17 13:12:00,31.8,30.3,30.09,NNW,329,0.0,1.0,94,0.00,,,0.01,Wunderground v.1.15,2013-12-17 21:12:00,
2013-12-17 13:15:00,32.2,30.7,30.09,NNW,329,0.0,4.0,94,0.00,,,0.01,Wunderground v.1.15,2013-12-17 21:15:00,
2013-12-17 13:16:00,32.2,30.7,30.09,NNW,329,0.0,4.0,94,0.00,,,0.01,Wunderground v.1.15,2013-12-17 21:16:00,
2013-12-17 13:17:00,32.3,30.8,30.09,NNW,329,0.0,4.0,94,0.00,,,0.01,Wunderground v.1.15,2013-12-17 21:17:00,
2013-12-17 13:20:00,32.5,31.0,30.09,NNW,329,3.0,3.0,94,0.00,,,0.01,Wunderground v.1.15,2013-12-17 21:20:00,
2013-12-17 13:21:00,32.5,31.0,30.09,NNW,329,1.0,3.0,94,0.00,,,0.01,Wunderground v.1.15,2013-12-17 21:21:00,
2013-12-17 13:22:00,32.4,30.9,30.09,NNW,329,1.0,4.0,94,0.00,,,0.01,Wunderground v.1.15,2013-12-17 21:22:00,
2013-12-17 13:26:00,32.3,30.8,30.09,NNW,329,0.0,4.0,94,0.00,,,0.01,Wunderground v.1.15,2013-12-17 21:26:00,
2013-12-17 13:27:00,32.2,30.7,30.09,NNW,329,0.0,4.0,94,0.00,,,0.01,Wunderground v.1.15,2013-12-17 21:27:00,
2013-12-17 13:28:00,32.2,30.7,30.09,NNW,329,0.0,4.0,94,0.00,,,0.01,Wunderground v.1.15,2013-12-17 21:28:00,
2013-12-17 13:31:00,32.1,30.6,30.09,NNW,329,0.0,1.0,94,0.00,,,0.01,Wunderground v.1.15,2013-12-17 21:31:00,
2013-12-17 13:32:00,32.2,30.7,30.09,NNW,329,0.0,1.0,94,0.00,,,0.01,Wunderground v.1.15,2013-12-17 21:32:00,
2013-12-17 13:33:00,32.4,30.9,30.09,NNW,329,0.0,1.0,94,0.00,,,0.01,Wunderground v.1.15,2013-12-17 21:33:00,
2013-12-17 13:36:00,32.8,31.3,30.09,NNW,329,0.0,1.0,94,0.00,,,0.01,Wunderground v.1.15,2013-12-17 21:36:00,
2013-12-17 13:37:00,32.9,31.4,30.09,NNW,329,0.0,1.0,94,0.00,,,0.01,Wunderground v.1.15,2013-12-17 21:37:00,
2013-12-17 13:38:00,33.0,31.5,30.09,NNW,329,0.0,1.0,94,0.00,,,0.01,Wunderground v.1.15,2013-12-17 21:38:00,
2013-12-17 13:39:00,32.9,31.4,30.09,NNW,329,0.0,0.0,94,0.00,,,0.01,Wunderground v.1.15,2013-12-17 21:39:00,
2013-12-17 13:41:00,32.8,31.3,30.09,NNW,329,0.0,0.0,94,0.00,,,0.01,Wunderground v.1.15,2013-12-17 21:41:00,
2013-12-17 13:42:00,32.8,31.3,30.09,NNW,329,0.0,0.0,94,0.00,,,0.01,Wunderground v.1.15,2013-12-17 21:42:00,
2013-12-17 13:44:00,32.8,31.3,30.09,NNW,329,0.0,0.0,94,0.00,,,0.01,Wunderground v.1.15,2013-12-17 21:44:00,
2013-12-17 13:46:00,32.9,31.1,30.09,NNW,329,0.0,0.0,93,0.00,,,0.01,Wunderground v.1.15,2013-12-17 21:46:00,
2013-12-17 13:47:00,33.1,31.6,30.09,NNW,329,0.0,0.0,94,0.00,,,0.01,Wunderground v.1.15,2013-12-17 21:47:00,
2013-12-17 13:48:00,33.2,31.7,30.09,NNW,329,0.0,0.0,94,0.00,,,0.01,Wunderground v.1.15,2013-12-17 21:48:00,
2013-12-17 13:49:00,33.4,31.9,30.09,NNW,329,0.0,0.0,94,0.00,,,0.01,Wunderground v.1.15,2013-12-17 21:49:00,
2013-12-17 13:51:00,33.5,32.0,30.09,NNW,329,0.0,1.0,94,0.00,,,0.01,Wunderground v.1.15,2013-12-17 21:51:00,
2013-12-17 13:52:00,33.5,32.0,30.08,NNW,329,0.0,1.0,94,0.00,,,0.01,Wunderground v.1.15,2013-12-17 21:52:00,
2013-12-17 13:53:00,33.5,32.0,30.08,NNW,329,0.0,1.0,94,0.00,,,0.01,Wunderground v.1.15,2013-12-17 21:53:00,
2013-12-17 13:54:00,33.4,31.9,30.09,NNW,329,0.0,1.0,94,0.00,,,0.01,Wunderground v.1.15,2013-12-17 21:54:00,
2013-12-17 13:55:00,33.4,31.6,30.09,NNW,329,0.0,1.0,93,0.00,,,0.01,Wunderground v.1.15,2013-12-17 21:55:00,
2013-12-17 13:56:00,33.3,31.5,30.08,NNW,329,0.0,1.0,93,0.00,,,0.01,Wunderground v.1.15,2013-12-17 21:56:00,
2013-12-17 13:57:00,33.2,31.4,30.08,NNW,329,2.0,3.0,93,0.00,,,0.01,Wunderground v.1.15,2013-12-17 21:57:00,
2013-12-17 13:58:00,33.2,31.4,30.08,NNW,329,1.0,3.0,93,0.00,,,0.01,Wunderground v.1.15,2013-12-17 21:58:00,
2013-12-17 13:59:00,32.9,31.1,30.08,NNW,329,0.0,0.0,93,0.00,,,0.01,Wunderground v.1.15,2013-12-17 21:59:00,
2013-12-17 14:00:00,32.9,31.1,30.08,NNW,329,0.0,0.0,93,0.00,,,0.01,Wunderground v.1.15,2013-12-17 22:00:00,
2013-12-17 14:01:00,32.8,30.7,30.08,NNW,329,0.0,2.0,92,0.00,,,0.01,Wunderground v.1.15,2013-12-17 22:01:00,
2013-12-17 14:02:00,32.7,30.6,30.08,NNW,329,0.0,2.0,92,0.00,,,0.01,Wunderground v.1.15,2013-12-17 22:02:00,
2013-12-17 14:03:00,32.6,30.5,30.08,NNW,329,0.0,2.0,92,0.00,,,0.01,Wunderground v.1.15,2013-12-17 22:03:00,
2013-12-17 14:05:00,32.5,30.4,30.08,NNW,329,0.0,2.0,92,0.00,,,0.01,Wunderground v.1.15,2013-12-17 22:05:00,
2013-12-17 14:06:00,32.4,30.3,30.08,NNW,329,0.0,2.0,92,0.00,,,0.01,Wunderground v.1.15,2013-12-17 22:06:00,
2013-12-17 14:07:00,32.5,30.7,30.08,NNW,329,0.0,2.0,93,0.00,,,0.01,Wunderground v.1.15,2013-12-17 22:07:00,
2013-12-17 14:08:00,32.8,31.0,30.08,NNW,329,0.0,2.0,93,0.00,,,0.01,Wunderground v.1.15,2013-12-17 22:08:00,
2013-12-17 14:10:00,33.0,31.2,30.08,NNW,329,0.0,0.0,93,0.00,,,0.01,Wunderground v.1.15,2013-12-17 22:10:00,
2013-12-17 14:12:00,33.0,31.2,30.08,NNW,329,0.0,0.0,93,0.00,,,0.01,Wunderground v.1.15,2013-12-17 22:12:00,
2013-12-17 14:14:00,33.0,31.2,30.08,NNW,329,0.0,0.0,93,0.00,,,0.01,Wunderground v.1.15,2013-12-17 22:14:00,
2013-12-17 14:15:00,33.1,31.3,30.08,NNW,329,2.0,2.0,93,0.00,,,0.01,Wunderground v.1.15,2013-12-17 22:15:00,
2013-12-17 14:16:00,33.2,31.4,30.08,NNW,329,0.0,2.0,93,0.00,,,0.01,Wunderground v.1.15,2013-12-17 22:16:00,
2013-12-17 14:17:00,33.1,31.3,30.08,NNW,329,0.0,2.0,93,0.00,,,0.01,Wunderground v.1.15,2013-12-17 22:17:00,
2013-12-17 14:19:00,33.2,31.4,30.08,NNW,329,0.0,0.0,93,0.00,,,0.01,Wunderground v.1.15,2013-12-17 22:19:00,
2013-12-17 14:20:00,33.2,31.4,30.08,NNW,329,0.0,1.0,93,0.00,,,0.01,Wunderground v.1.15,2013-12-17 22:20:00,
2013-12-17 14:21:00,33.2,31.4,30.08,NNW,329,0.0,1.0,93,0.00,,,0.01,Wunderground v.1.15,2013-12-17 22:21:00,
2013-12-17 14:22:00,33.2,31.4,30.08,NNW,329,0.0,1.0,93,0.00,,,0.01,Wunderground v.1.15,2013-12-17 22:22:00,
2013-12-17 14:24:00,33.1,31.3,30.08,NNW,329,2.0,2.0,93,0.00,,,0.01,Wunderground v.1.15,2013-12-17 22:24:00,
2013-12-17 14:25:00,33.0,31.2,30.08,NNW,329,0.0,2.0,93,0.00,,,0.01,Wunderground v.1.15,2013-12-17 22:25:00,
2013-12-17 14:26:00,33.0,30.9,30.08,NNW,329,0.0,2.0,92,0.00,,,0.01,Wunderground v.1.15,2013-12-17 22:26:00,
2013-12-17 14:27:00,33.0,30.9,30.08,NNW,329,0.0,2.0,92,0.00,,,0.01,Wunderground v.1.15,2013-12-17 22:27:00,
2013-12-17 14:28:00,33.0,30.9,30.08,NNW,329,0.0,2.0,92,0.00,,,0.01,Wunderground v.1.15,2013-12-17 22:28:00,
2013-12-17 14:29:00,33.2,31.4,30.08,NNW,329,0.0,0.0,93,0.00,,,0.01,Wunderground v.1.15,2013-12-17 22:29:00,
2013-12-17 14:31:00,33.2,31.4,30.08,NNW,329,0.0,0.0,93,0.00,,,0.01,Wunderground v.1.15,2013-12-17 22:31:00,
2013-12-17 14:32:00,33.1,31.3,30.08,NNW,329,0.0,1.0,93,0.00,,,0.01,Wunderground v.1.15,2013-12-17 22:32:00,
2013-12-17 14:33:00,33.1,31.0,30.08,NNW,329,1.0,1.0,92,0.00,,,0.01,Wunderground v.1.15,2013-12-17 22:33:00,
2013-12-17 14:34:00,33.0,30.9,30.08,NNW,329,0.0,2.0,92,0.00,,,0.01,Wunderground v.1.15,2013-12-17 22:34:00,
2013-12-17 14:36:00,32.9,30.8,30.08,NNW,329,0.0,2.0,92,0.00,,,0.01,Wunderground v.1.15,2013-12-17 22:36:00,
2013-12-17 14:37:00,32.8,30.7,30.08,NNW,329,0.0,2.0,92,0.00,,,0.01,Wunderground v.1.15,2013-12-17 22:37:00,
2013-12-17 14:38:00,32.8,30.7,30.08,NNW,329,0.0,2.0,92,0.00,,,0.01,Wunderground v.1.15,2013-12-17 22:38:00,
2013-12-17 14:40:00,32.6,30.5,30.08,NNW,329,0.0,3.0,92,0.00,,,0.01,Wunderground v.1.15,2013-12-17 22:40:00,
2013-12-17 14:41:00,32.5,30.4,30.08,NNW,329,1.0,3.0,92,0.00,,,0.01,Wunderground v.1.15,2013-12-17 22:41:00,
2013-12-17 14:42:00,32.5,30.4,30.08,NNW,329,0.0,3.0,92,0.00,,,0.01,Wunderground v.1.15,2013-12-17 22:42:00,
2013-12-17 14:43:00,32.4,30.3,30.08,NNW,329,2.0,4.0,92,0.00,,,0.01,Wunderground v.1.15,2013-12-17 22:43:00,
2013-12-17 14:45:00,32.3,30.2,30.08,NNW,329,0.0,5.0,92,0.00,,,0.01,Wunderground v.1.15,2013-12-17 22:45:00,
2013-12-17 14:47:00,32.3,30.2,30.08,NNW,329,1.0,5.0,92,0.00,,,0.01,Wunderground v.1.15,2013-12-17 22:47:00,
2013-12-17 14:48:00,32.2,30.1,30.07,NNW,329,3.0,5.0,92,0.00,,,0.01,Wunderground v.1.15,2013-12-17 22:48:00,
2013-12-17 14:50:00,32.1,30.0,30.08,NNW,329,0.0,2.0,92,0.00,,,0.01,Wunderground v.1.15,2013-12-17 22:50:00,
2013-12-17 14:52:00,32.0,29.9,30.08,NNW,329,3.0,3.0,92,0.00,,,0.01,Wunderground v.1.15,2013-12-17 22:52:00,
2013-12-17 14:53:00,32.0,29.9,30.08,NNW,329,4.0,4.0,92,0.00,,,0.01,Wunderground v.1.15,2013-12-17 22:53:00,
2013-12-17 14:55:00,31.9,29.8,30.08,NNW,329,2.0,5.0,92,0.00,,,0.01,Wunderground v.1.15,2013-12-17 22:55:00,
2013-12-17 14:57:00,31.7,29.6,30.08,NNW,329,2.0,5.0,92,0.00,,,0.01,Wunderground v.1.15,2013-12-17 22:57:00,
2013-12-17 14:58:00,31.7,29.6,30.09,NNW,329,2.0,5.0,92,0.00,,,0.01,Wunderground v.1.15,2013-12-17 22:58:00,
2013-12-17 15:00:00,31.6,29.5,30.08,NNW,329,3.0,3.0,92,0.00,,,0.01,Wunderground v.1.15,2013-12-17 23:00:00,
2013-12-17 15:02:00,31.6,29.8,30.09,NNW,329,1.0,3.0,93,0.00,,,0.01,Wunderground v.1.15,2013-12-17 23:02:00,
2013-12-17 15:03:00,31.6,29.8,30.09,NNW,329,0.0,3.0,93,0.00,,,0.01,Wunderground v.1.15,2013-12-17 23:03:00,
2013-12-17 15:04:00,31.6,29.8,30.09,NNW,329,1.0,3.0,93,0.00,,,0.01,Wunderground v.1.15,2013-12-17 23:04:00,
2013-12-17 15:05:00,31.6,29.8,30.09,NNW,329,1.0,3.0,93,0.00,,,0.01,Wunderground v.1.15,2013-12-17 23:05:00,
2013-12-17 15:07:00,31.6,29.8,30.08,NNW,329,3.0,5.0,93,0.00,,,0.01,Wunderground v.1.15,2013-12-17 23:07:00,
2013-12-17 15:08:00,31.6,29.8,30.08,NNW,329,3.0,5.0,93,0.00,,,0.01,Wunderground v.1.15,2013-12-17 23:08:00,
2013-12-17 15:09:00,31.5,29.7,30.09,NNW,329,3.0,3.0,93,0.00,,,0.01,Wunderground v.1.15,2013-12-17 23:09:00,
2013-12-17 15:11:00,31.5,29.7,30.09,NNW,329,1.0,4.0,93,0.00,,,0.01,Wunderground v.1.15,2013-12-17 23:11:00,
2013-12-17 15:12:00,31.5,29.7,30.09,NNW,329,3.0,5.0,93,0.00,,,0.01,Wunderground v.1.15,2013-12-17 23:12:00,
2013-12-17 15:13:00,31.5,29.7,30.09,NNW,329,3.0,5.0,93,0.00,,,0.01,Wunderground v.1.15,2013-12-17 23:13:00,
2013-12-17 15:14:00,31.4,29.6,30.09,NNW,329,0.0,5.0,93,0.00,,,0.01,Wunderground v.1.15,2013-12-17 23:14:00,
2013-12-17 15:17:00,31.4,29.6,30.09,NNW,329,0.0,5.0,93,0.00,,,0.01,Wunderground v.1.15,2013-12-17 23:17:00,
2013-12-17 15:18:00,31.5,29.7,30.10,NNW,329,0.0,5.0,93,0.00,,,0.01,Wunderground v.1.15,2013-12-17 23:18:00,
2013-12-17 15:19:00,31.7,29.9,30.10,NNW,329,0.0,1.0,93,0.00,,,0.01,Wunderground v.1.15,2013-12-17 23:19:00,
2013-12-17 15:22:00,31.8,30.0,30.09,NNW,329,2.0,3.0,93,0.00,,,0.01,Wunderground v.1.15,2013-12-17 23:22:00,
2013-12-17 15:23:00,31.8,30.3,30.09,NNW,329,2.0,3.0,94,0.00,,,0.01,Wunderground v.1.15,2013-12-17 23:23:00,
2013-12-17 15:24:00,31.8,30.3,30.08,NNW,329,2.0,3.0,94,0.00,,,0.01,Wunderground v.1.15,2013-12-17 23:24:00,
2013-12-17 15:25:00,31.8,30.0,30.08,NNW,329,0.0,3.0,93,0.00,,,0.01,Wunderground v.1.15,2013-12-17 23:25:00,
2013-12-17 15:27:00,31.7,29.9,30.09,NNW,329,0.0,3.0,93,0.00,,,0.01,Wunderground v.1.15,2013-12-17 23:27:00,
2013-12-17 15:28:00,31.7,29.9,30.09,NNW,329,0.0,3.0,93,0.00,,,0.01,Wunderground v.1.15,2013-12-17 23:28:00,
2013-12-17 15:29:00,31.7,29.9,30.09,NNW,329,1.0,3.0,93,0.00,,,0.01,Wunderground v.1.15,2013-12-17 23:29:00,
2013-12-17 15:30:00,31.6,29.8,30.09,NNW,329,0.0,1.0,93,0.00,,,0.01,Wunderground v.1.15,2013-12-17 23:30:00,
2013-12-17 15:33:00,31.6,29.8,30.09,NNW,329,1.0,2.0,93,0.00,,,0.01,Wunderground v.1.15,2013-12-17 23:33:00,
2013-12-17 15:34:00,31.6,29.8,30.09,NNW,329,0.0,2.0,93,0.00,,,0.01,Wunderground v.1.15,2013-12-17 23:34:00,
2013-12-17 15:36:00,31.6,29.8,30.09,NNW,329,0.0,2.0,93,0.00,,,0.01,Wunderground v.1.15,2013-12-17 23:36:00,
2013-12-17 15:38:00,31.5,29.7,30.09,NNW,329,0.0,2.0,93,0.00,,,0.01,Wunderground v.1.15,2013-12-17 23:38:00,
2013-12-17 15:39:00,31.5,29.7,30.09,NNW,329,0.0,1.0,93,0.00,,,0.01,Wunderground v.1.15,2013-12-17 23:39:00,
2013-12-17 15:42:00,31.4,29.6,30.09,NNW,329,2.0,3.0,93,0.00,,,0.01,Wunderground v.1.15,2013-12-17 23:42:00,
2013-12-17 15:43:00,31.4,29.6,30.09,NNW,329,1.0,3.0,93,0.00,,,0.01,Wunderground v.1.15,2013-12-17 23:43:00,
2013-12-17 15:44:00,31.4,29.6,30.09,NNW,329,1.0,3.0,93,0.00,,,0.01,Wunderground v.1.15,2013-12-17 23:44:00,
2013-12-17 15:47:00,31.3,29.5,30.09,NNW,329,0.0,3.0,93,0.00,,,0.01,Wunderground v.1.15,2013-12-17 23:47:00,
2013-12-17 15:48:00,31.3,29.5,30.09,NNW,329,0.0,3.0,93,0.00,,,0.01,Wunderground v.1.15,2013-12-17 23:48:00,
2013-12-17 15:49:00,31.3,29.8,30.09,NNW,329,0.0,3.0,94,0.00,,,0.01,Wunderground v.1.15,2013-12-17 23:49:00,
2013-12-17 15:53:00,31.4,29.9,30.09,NNW,329,1.0,2.0,94,0.00,,,0.01,Wunderground v.1.15,2013-12-17 23:53:00,
2013-12-17 15:54:00,31.4,29.9,30.09,NNW,329,0.0,2.0,94,0.00,,,0.01,Wunderground v.1.15,2013-12-17 23:54:00,
2013-12-17 15:58:00,31.4,29.9,30.08,NNW,329,0.0,2.0,94,0.00,,,0.01,Wunderground v.1.15,2013-12-17 23:58:00,
2013-12-17 15:59:00,31.4,29.9,30.08,NNW,329,0.0,2.0,94,0.00,,,0.01,Wunderground v.1.15,2013-12-17 23:59:00,
2013-12-17 16:00:00,31.4,29.9,30.08,NNW,329,1.0,2.0,94,0.00,,,0.01,Wunderground v.1.15,2013-12-18 00:00:00,
2013-12-17 16:03:00,31.4,29.9,30.08,NNW,329,1.0,2.0,94,0.00,,,0.01,Wunderground v.1.15,2013-12-18 00:03:00,
2013-12-17 16:04:00,31.3,29.8,30.08,NNW,329,0.0,3.0,94,0.00,,,0.01,Wunderground v.1.15,2013-12-18 00:04:00,
2013-12-17 16:05:00,31.3,29.8,30.08,NNW,329,0.0,3.0,94,0.00,,,0.01,Wunderground v.1.15,2013-12-18 00:05:00,
2013-12-17 16:08:00,31.3,29.8,30.08,NNW,329,0.0,3.0,94,0.00,,,0.01,Wunderground v.1.15,2013-12-18 00:08:00,
2013-12-17 16:09:00,31.3,29.8,30.08,NNW,329,1.0,1.0,94,0.00,,,0.01,Wunderground v.1.15,2013-12-18 00:09:00,
2013-12-17 16:10:00,31.2,29.7,30.08,NNW,329,3.0,3.0,94,0.00,,,0.01,Wunderground v.1.15,2013-12-18 00:10:00,
2013-12-17 16:14:00,31.1,29.6,30.08,NNW,329,2.0,4.0,94,0.00,,,0.01,Wunderground v.1.15,2013-12-18 00:14:00,
2013-12-17 16:15:00,31.2,29.7,30.08,NNW,329,2.0,4.0,94,0.00,,,0.01,Wunderground v.1.15,2013-12-18 00:15:00,
2013-12-17 16:16:00,31.1,29.6,30.08,NNW,329,0.0,4.0,94,0.00,,,0.01,Wunderground v.1.15,2013-12-18 00:16:00,
2013-12-17 16:19:00,31.1,29.6,30.07,NNW,329,2.0,2.0,94,0.00,,,0.01,Wunderground v.1.15,2013-12-18 00:19:00,
2013-12-17 16:20:00,31.1,29.6,30.08,NNW,329,3.0,3.0,94,0.00,,,0.01,Wunderground v.1.15,2013-12-18 00:20:00,
2013-12-17 16:21:00,31.1,29.6,30.08,NNW,329,3.0,4.0,94,0.00,,,0.01,Wunderground v.1.15,2013-12-18 00:21:00,
2013-12-17 16:24:00,31.1,29.6,30.08,NNW,329,3.0,4.0,94,0.00,,,0.01,Wunderground v.1.15,2013-12-18 00:24:00,
2013-12-17 16:25:00,31.0,29.5,30.08,NNW,329,2.0,4.0,94,0.00,,,0.01,Wunderground v.1.15,2013-12-18 00:25:00,
2013-12-17 16:26:00,31.0,29.5,30.08,NNW,329,3.0,4.0,94,0.00,,,0.01,Wunderground v.1.15,2013-12-18 00:26:00,
2013-12-17 16:27:00,31.0,29.5,30.07,NNW,329,2.0,4.0,94,0.00,,,0.01,Wunderground v.1.15,2013-12-18 00:27:00,
2013-12-17 16:29:00,31.0,29.5,30.08,NNW,329,3.0,3.0,94,0.00,,,0.01,Wunderground v.1.15,2013-12-18 00:29:00,
2013-12-17 16:30:00,31.0,29.5,30.08,NNW,329,2.0,3.0,94,0.00,,,0.01,Wunderground v.1.15,2013-12-18 00:30:00,
2013-12-17 16:31:00,31.0,29.5,30.08,NNW,329,0.0,3.0,94,0.00,,,0.01,Wunderground v.1.15,2013-12-18 00:31:00,
2013-12-17 16:32:00,31.0,29.5,30.08,NNW,329,0.0,3.0,94,0.00,,,0.01,Wunderground v.1.15,2013-12-18 00:32:00,
2013-12-17 16:34:00,31.0,29.5,30.08,NNW,329,0.0,3.0,94,0.00,,,0.01,Wunderground v.1.15,2013-12-18 00:34:00,
2013-12-17 16:35:00,31.0,29.5,30.08,NNW,329,0.0,3.0,94,0.00,,,0.01,Wunderground v.1.15,2013-12-18 00:35:00,
2013-12-17 16:36:00,31.0,29.5,30.08,NNW,329,0.0,3.0,94,0.00,,,0.01,Wunderground v.1.15,2013-12-18 00:36:00,
2013-12-17 16:37:00,31.1,29.6,30.08,NNW,329,0.0,3.0,94,0.00,,,0.01,Wunderground v.1.15,2013-12-18 00:37:00,
2013-12-17 16:39:00,31.6,30.1,30.07,NNW,329,0.0,1.0,94,0.00,,,0.01,Wunderground v.1.15,2013-12-18 00:39:00,
2013-12-17 16:40:00,31.7,30.2,30.07,NNW,329,0.0,1.0,94,0.00,,,0.01,Wunderground v.1.15,2013-12-18 00:40:00,
2013-12-17 16:41:00,31.8,30.3,30.07,NNW,329,0.0,1.0,94,0.00,,,0.01,Wunderground v.1.15,2013-12-18 00:41:00,
2013-12-17 16:42:00,31.9,30.6,30.07,NNW,329,1.0,1.0,95,0.00,,,0.01,Wunderground v.1.15,2013-12-18 00:42:00,
2013-12-17 16:44:00,31.8,30.3,30.07,NNW,329,0.0,1.0,94,0.00,,,0.01,Wunderground v.1.15,2013-12-18 00:44:00,
2013-12-17 16:46:00,31.9,30.4,30.07,NNW,329,0.0,1.0,94,0.00,,,0.01,Wunderground v.1.15,2013-12-18 00:46:00,
2013-12-17 16:47:00,32.0,30.5,30.06,NNW,329,0.0,1.0,94,0.00,,,0.01,Wunderground v.1.15,2013-12-18 00:47:00,
2013-12-17 16:50:00,32.0,30.5,30.06,NNW,329,1.0,1.0,94,0.00,,,0.01,Wunderground v.1.15,2013-12-18 00:50:00,
2013-12-17 16:51:00,31.9,30.4,30.06,NNW,329,0.0,1.0,94,0.00,,,0.01,Wunderground v.1.15,2013-12-18 00:51:00,
2013-12-17 16:53:00,31.8,30.3,30.07,NNW,329,1.0,1.0,94,0.00,,,0.01,Wunderground v.1.15,2013-12-18 00:53:00,
2013-12-17 16:55:00,31.6,30.1,30.07,NNW,329,2.0,2.0,94,0.00,,,0.01,Wunderground v.1.15,2013-12-18 00:55:00,
2013-12-17 16:56:00,31.5,30.0,30.07,NNW,329,2.0,3.0,94,0.00,,,0.01,Wunderground v.1.15,2013-12-18 00:56:00,
2013-12-17 16:57:00,31.5,30.0,30.07,NNW,329,2.0,3.0,94,0.00,,,0.01,Wunderground v.1.15,2013-12-18 00:57:00,
2013-12-17 16:58:00,31.4,29.9,30.06,NNW,329,1.0,3.0,94,0.00,,,0.01,Wunderground v.1.15,2013-12-18 00:58:00,
2013-12-17 17:00:00,31.2,29.7,30.06,NNW,329,3.0,3.0,94,0.00,,,0.01,Wunderground v.1.15,2013-12-18 01:00:00,
2013-12-17 17:01:00,31.2,29.7,30.06,NNW,329,1.0,3.0,94,0.00,,,0.01,Wunderground v.1.15,2013-12-18 01:01:00,
2013-12-17 17:02:00,31.1,29.6,30.06,NNW,329,1.0,3.0,94,0.00,,,0.01,Wunderground v.1.15,2013-12-18 01:02:00,
2013-12-17 17:03:00,31.1,29.6,30.07,NNW,329,1.0,3.0,94,0.00,,,0.01,Wunderground v.1.15,2013-12-18 01:03:00,
2013-12-17 17:05:00,31.1,29.6,30.07,NNW,329,1.0,3.0,94,0.00,,,0.01,Wunderground v.1.15,2013-12-18 01:05:00,
2013-12-17 17:07:00,31.1,29.6,30.07,NNW,329,1.0,3.0,94,0.00,,,0.01,Wunderground v.1.15,2013-12-18 01:07:00,
2013-12-17 17:08:00,31.0,29.5,30.07,NNW,329,0.0,3.0,94,0.00,,,0.01,Wunderground v.1.15,2013-12-18 01:08:00,
2013-12-17 17:10:00,31.0,29.5,30.07,NNW,329,1.0,1.0,94,0.00,,,0.01,Wunderground v.1.15,2013-12-18 01:10:00,
2013-12-17 17:12:00,31.0,29.5,30.07,NNW,329,2.0,2.0,94,0.00,,,0.01,Wunderground v.1.15,2013-12-18 01:12:00,
2013-12-17 17:13:00,31.0,29.5,30.07,NNW,329,1.0,2.0,94,0.00,,,0.01,Wunderground v.1.15,2013-12-18 01:13:00,
2013-12-17 17:14:00,31.0,29.5,30.07,NNW,329,2.0,2.0,94,0.00,,,0.01,Wunderground v.1.15,2013-12-18 01:14:00,
2013-12-17 17:15:00,31.0,29.5,30.07,NNW,329,1.0,2.0,94,0.00,,,0.01,Wunderground v.1.15,2013-12-18 01:15:00,
2013-12-17 17:17:00,31.0,29.5,30.07,NNW,329,2.0,2.0,94,0.00,,,0.01,Wunderground v.1.15,2013-12-18 01:17:00,
2013-12-17 17:18:00,31.0,29.5,30.07,NNW,329,2.0,2.0,94,0.00,,,0.01,Wunderground v.1.15,2013-12-18 01:18:00,
2013-12-17 17:19:00,31.0,29.5,30.07,NNW,329,2.0,3.0,94,0.00,,,0.01,Wunderground v.1.15,2013-12-18 01:19:00,
2013-12-17 17:20:00,30.9,29.4,30.07,NNW,329,3.0,3.0,94,0.00,,,0.01,Wunderground v.1.15,2013-12-18 01:20:00,
2013-12-17 17:22:00,30.8,29.3,30.07,NNW,329,3.0,4.0,94,0.00,,,0.01,Wunderground v.1.15,2013-12-18 01:22:00,
2013-12-17 17:23:00,30.8,29.3,30.07,NNW,329,3.0,5.0,94,0.00,,,0.01,Wunderground v.1.15,2013-12-18 01:23:00,
2013-12-17 17:24:00,30.8,29.3,30.07,NNW,329,4.0,5.0,94,0.00,,,0.01,Wunderground v.1.15,2013-12-18 01:24:00,
2013-12-17 17:25:00,30.8,29.3,30.07,NNW,329,2.0,5.0,94,0.00,,,0.01,Wunderground v.1.15,2013-12-18 01:25:00,
2013-12-17 17:27:00,30.7,29.2,30.07,NNW,329,2.0,5.0,94,0.00,,,0.01,Wunderground v.1.15,2013-12-18 01:27:00,
2013-12-17 17:29:00,30.7,29.2,30.06,NNW,329,2.0,5.0,94,0.00,,,0.01,Wunderground v.1.15,2013-12-18 01:29:00,
2013-12-17 17:30:00,30.6,29.1,30.06,NNW,329,3.0,4.0,94,0.00,,,0.01,Wunderground v.1.15,2013-12-18 01:30:00,
2013-12-17 17:32:00,30.6,29.1,30.06,NNW,329,1.0,4.0,94,0.00,,,0.01,Wunderground v.1.15,2013-12-18 01:32:00,
2013-12-17 17:34:00,30.6,29.1,30.06,NNW,329,3.0,4.0,94,0.00,,,0.01,Wunderground v.1.15,2013-12-18 01:34:00,
2013-12-17 17:35:00,30.6,29.1,30.06,NNW,329,1.0,4.0,94,0.00,,,0.01,Wunderground v.1.15,2013-12-18 01:35:00,
2013-12-17 17:36:00,30.6,29.1,30.06,NNW,329,2.0,4.0,94,0.00,,,0.01,Wunderground v.1.15,2013-12-18 01:36:00,
2013-12-17 17:38:00,30.7,29.2,30.06,NNW,329,1.0,4.0,94,0.00,,,0.01,Wunderground v.1.15,2013-12-18 01:38:00,
2013-12-17 17:39:00,30.7,29.2,30.06,NNW,329,2.0,2.0,94,0.00,,,0.01,Wunderground v.1.15,2013-12-18 01:39:00,
2013-12-17 17:40:00,30.7,29.2,30.06,NNW,329,2.0,2.0,94,0.00,,,0.01,Wunderground v.1.15,2013-12-18 01:40:00,
2013-12-17 17:41:00,30.7,29.2,30.06,NNW,329,1.0,2.0,94,0.00,,,0.01,Wunderground v.1.15,2013-12-18 01:41:00,
2013-12-17 17:43:00,30.7,29.2,30.06,NNW,329,1.0,2.0,94,0.00,,,0.01,Wunderground v.1.15,2013-12-18 01:43:00,
2013-12-17 17:45:00,30.7,29.2,30.06,NNW,329,3.0,3.0,94,0.00,,,0.01,Wunderground v.1.15,2013-12-18 01:45:00,
2013-12-17 17:46:00,30.7,29.2,30.06,NNW,329,2.0,3.0,94,0.00,,,0.01,Wunderground v.1.15,2013-12-18 01:46:00,
2013-12-17 17:48:00,30.7,29.2,30.06,NNW,329,2.0,3.0,94,0.00,,,0.01,Wunderground v.1.15,2013-12-18 01:48:00,
2013-12-17 17:50:00,30.7,29.2,30.06,NNW,329,1.0,3.0,94,0.00,,,0.01,Wunderground v.1.15,2013-12-18 01:50:00,
2013-12-17 17:51:00,30.6,29.1,30.06,NNW,329,3.0,3.0,94,0.00,,,0.01,Wunderground v.1.15,2013-12-18 01:51:00,
2013-12-17 17:53:00,30.7,29.2,30.06,NNW,329,4.0,4.0,94,0.00,,,0.01,Wunderground v.1.15,2013-12-18 01:53:00,
2013-12-17 17:55:00,30.6,29.1,30.06,NNW,329,2.0,5.0,94,0.00,,,0.01,Wunderground v.1.15,2013-12-18 01:55:00,
2013-12-17 17:56:00,30.6,29.1,30.06,NNW,329,3.0,5.0,94,0.00,,,0.01,Wunderground v.1.15,2013-12-18 01:56:00,
2013-12-17 17:57:00,30.5,29.0,30.06,NNW,329,4.0,5.0,94,0.00,,,0.01,Wunderground v.1.15,2013-12-18 01:57:00,
2013-12-17 17:58:00,30.5,29.0,30.06,NNW,329,2.0,5.0,94,0.00,,,0.01,Wunderground v.1.15,2013-12-18 01:58:00,
2013-12-17 18:00:00,30.5,29.0,30.06,NNW,329,2.0,3.0,94,0.00,,,0.01,Wunderground v.1.15,2013-12-18 02:00:00,
2013-12-17 18:01:00,30.5,29.0,30.06,NNW,329,2.0,3.0,94,0.00,,,0.01,Wunderground v.1.15,2013-12-18 02:01:00,
2013-12-17 18:02:00,30.4,28.9,30.06,NNW,329,3.0,4.0,94,0.00,,,0.01,Wunderground v.1.15,2013-12-18 02:02:00,
2013-12-17 18:04:00,30.4,28.9,30.06,NNW,329,2.0,4.0,94,0.00,,,0.01,Wunderground v.1.15,2013-12-18 02:04:00,
2013-12-17 18:05:00,30.3,28.8,30.06,NNW,329,4.0,5.0,94,0.00,,,0.01,Wunderground v.1.15,2013-12-18 02:05:00,
2013-12-17 18:06:00,30.3,28.8,30.06,NNW,329,4.0,5.0,94,0.00,,,0.01,Wunderground v.1.15,2013-12-18 02:06:00,
2013-12-17 18:07:00,30.3,28.8,30.06,NNW,329,4.0,5.0,94,0.00,,,0.01,Wunderground v.1.15,2013-12-18 02:07:00,
2013-12-17 18:08:00,30.3,28.8,30.06,NNW,329,3.0,5.0,94,0.00,,,0.01,Wunderground v.1.15,2013-12-18 02:08:00,
2013-12-17 18:09:00,30.3,28.8,30.06,NNW,329,2.0,3.0,94,0.00,,,0.01,Wunderground v.1.15,2013-12-18 02:09:00,
2013-12-17 18:10:00,30.3,28.8,30.06,NNW,329,3.0,3.0,94,0.00,,,0.01,Wunderground v.1.15,2013-12-18 02:10:00,
2013-12-17 18:11:00,30.2,28.7,30.06,NNW,329,2.0,4.0,94,0.00,,,0.01,Wunderground v.1.15,2013-12-18 02:11:00,
2013-12-17 18:12:00,30.2,28.7,30.06,NNW,329,2.0,4.0,94,0.00,,,0.01,Wunderground v.1.15,2013-12-18 02:12:00,
2013-12-17 18:13:00,30.2,28.7,30.06,NNW,329,3.0,4.0,94,0.00,,,0.01,Wunderground v.1.15,2013-12-18 02:13:00,
2013-12-17 18:14:00,30.2,28.7,30.06,NNW,329,2.0,4.0,94,0.00,,,0.01,Wunderground v.1.15,2013-12-18 02:14:00,
2013-12-17 18:15:00,30.2,28.7,30.06,NNW,329,2.0,4.0,94,0.00,,,0.01,Wunderground v.1.15,2013-12-18 02:15:00,
2013-12-17 18:16:00,30.1,28.8,30.06,NNW,329,3.0,4.0,95,0.00,,,0.01,Wunderground v.1.15,2013-12-18 02:16:00,
2013-12-17 18:17:00,30.1,28.6,30.06,NNW,329,2.0,4.0,94,0.00,,,0.01,Wunderground v.1.15,2013-12-18 02:17:00,
2013-12-17 18:18:00,30.0,28.5,30.06,NNW,329,3.0,4.0,94,0.00,,,0.01,Wunderground v.1.15,2013-12-18 02:18:00,
2013-12-17 18:19:00,30.0,28.5,30.06,NNW,329,3.0,3.0,94,0.00,,,0.01,Wunderground v.1.15,2013-12-18 02:19:00,
2013-12-17 18:20:00,29.9,28.4,30.05,NNW,329,2.0,3.0,94,0.00,,,0.01,Wunderground v.1.15,2013-12-18 02:20:00,
2013-12-17 18:21:00,29.9,28.4,30.06,NNW,329,3.0,3.0,94,0.00,,,0.01,Wunderground v.1.15,2013-12-18 02:21:00,
2013-12-17 18:22:00,29.9,28.4,30.06,NNW,329,2.0,3.0,94,0.00,,,0.01,Wunderground v.1.15,2013-12-18 02:22:00,
2013-12-17 18:23:00,29.8,28.3,30.06,NNW,329,3.0,4.0,94,0.00,,,0.01,Wunderground v.1.15,2013-12-18 02:23:00,
2013-12-17 18:24:00,29.8,28.3,30.06,NNW,329,2.0,4.0,94,0.00,,,0.01,Wunderground v.1.15,2013-12-18 02:24:00,
2013-12-17 18:26:00,29.8,28.3,30.05,NNW,329,1.0,4.0,94,0.00,,,0.01,Wunderground v.1.15,2013-12-18 02:26:00,
2013-12-17 18:27:00,29.8,28.3,30.06,NNW,329,2.0,4.0,94,0.00,,,0.01,Wunderground v.1.15,2013-12-18 02:27:00,
2013-12-17 18:29:00,29.7,28.2,30.06,NNW,329,3.0,4.0,94,0.00,,,0.01,Wunderground v.1.15,2013-12-18 02:29:00,
2013-12-17 18:31:00,29.7,28.2,30.06,NNW,329,3.0,4.0,94,0.00,,,0.01,Wunderground v.1.15,2013-12-18 02:31:00,
2013-12-17 18:32:00,29.6,28.1,30.06,NNW,329,2.0,4.0,94,0.00,,,0.01,Wunderground v.1.15,2013-12-18 02:32:00,
2013-12-17 18:34:00,29.6,28.3,30.06,NNW,329,0.0,4.0,95,0.00,,,0.01,Wunderground v.1.15,2013-12-18 02:34:00,
2013-12-17 18:35:00,29.6,28.3,30.06,NNW,329,1.0,4.0,95,0.00,,,0.01,Wunderground v.1.15,2013-12-18 02:35:00,
2013-12-17 18:36:00,29.6,28.1,30.06,NNW,329,1.0,4.0,94,0.00,,,0.01,Wunderground v.1.15,2013-12-18 02:36:00,
2013-12-17 18:37:00,29.6,28.1,30.06,NNW,329,2.0,4.0,94,0.00,,,0.01,Wunderground v.1.15,2013-12-18 02:37:00,
2013-12-17 18:39:00,29.5,28.0,30.06,NNW,329,0.0,2.0,94,0.00,,,0.01,Wunderground v.1.15,2013-12-18 02:39:00,
2013-12-17 18:40:00,29.5,28.0,30.06,NNW,329,0.0,2.0,94,0.00,,,0.01,Wunderground v.1.15,2013-12-18 02:40:00,
2013-12-17 18:42:00,29.5,28.0,30.05,NNW,329,0.0,2.0,94,0.00,,,0.01,Wunderground v.1.15,2013-12-18 02:42:00,
2013-12-17 18:43:00,29.4,27.9,30.05,NNW,329,2.0,2.0,94,0.00,,,0.01,Wunderground v.1.15,2013-12-18 02:43:00,
2013-12-17 18:44:00,29.4,27.9,30.06,NNW,329,0.0,2.0,94,0.00,,,0.01,Wunderground v.1.15,2013-12-18 02:44:00,
2013-12-17 18:45:00,29.4,27.9,30.05,NNW,329,1.0,2.0,94,0.00,,,0.01,Wunderground v.1.15,2013-12-18 02:45:00,
2013-12-17 18:47:00,29.3,27.8,30.05,NNW,329,2.0,2.0,94,0.00,,,0.01,Wunderground v.1.15,2013-12-18 02:47:00,
2013-12-17 18:48:00,29.3,28.0,30.05,NNW,329,2.0,2.0,95,0.00,,,0.01,Wunderground v.1.15,2013-12-18 02:48:00,
2013-12-17 18:49:00,29.3,28.0,30.06,NNW,329,2.0,3.0,95,0.00,,,0.01,Wunderground v.1.15,2013-12-18 02:49:00,
2013-12-17 18:50:00,29.3,28.0,30.06,NNW,329,2.0,3.0,95,0.00,,,0.01,Wunderground v.1.15,2013-12-18 02:50:00,
2013-12-17 18:52:00,29.3,28.0,30.05,NNW,329,2.0,3.0,95,0.00,,,0.01,Wunderground v.1.15,2013-12-18 02:52:00,
2013-12-17 18:53:00,29.3,28.0,30.05,NNW,329,1.0,3.0,95,0.00,,,0.01,Wunderground v.1.15,2013-12-18 02:53:00,
2013-12-17 18:55:00,29.3,28.0,30.05,NNW,329,2.0,3.0,95,0.00,,,0.01,Wunderground v.1.15,2013-12-18 02:55:00,
2013-12-17 18:57:00,29.4,28.1,30.05,NNW,329,1.0,3.0,95,0.00,,,0.01,Wunderground v.1.15,2013-12-18 02:57:00,
2013-12-17 18:58:00,29.4,28.1,30.05,NNW,329,2.0,3.0,95,0.00,,,0.01,Wunderground v.1.15,2013-12-18 02:58:00,
2013-12-17 19:00:00,29.4,28.1,30.05,NNW,329,3.0,3.0,95,0.00,,,0.01,Wunderground v.1.15,2013-12-18 03:00:00,
2013-12-17 19:02:00,29.4,28.1,30.05,NNW,329,2.0,3.0,95,0.00,,,0.01,Wunderground v.1.15,2013-12-18 03:02:00,
2013-12-17 19:03:00,29.4,28.1,30.05,NNW,329,1.0,3.0,95,0.00,,,0.01,Wunderground v.1.15,2013-12-18 03:03:00,
2013-12-17 19:05:00,29.3,28.0,30.05,NNW,329,2.0,3.0,95,0.00,,,0.01,Wunderground v.1.15,2013-12-18 03:05:00,
2013-12-17 19:06:00,29.3,28.0,30.05,NNW,329,2.0,3.0,95,0.00,,,0.01,Wunderground v.1.15,2013-12-18 03:06:00,
2013-12-17 19:07:00,29.2,27.9,30.05,NNW,329,2.0,3.0,95,0.00,,,0.01,Wunderground v.1.15,2013-12-18 03:07:00,
2013-12-17 19:08:00,29.2,27.9,30.05,NNW,329,2.0,3.0,95,0.00,,,0.01,Wunderground v.1.15,2013-12-18 03:08:00,
2013-12-17 19:10:00,29.0,27.5,30.05,NNW,329,0.0,2.0,94,0.00,,,0.01,Wunderground v.1.15,2013-12-18 03:10:00,
2013-12-17 19:11:00,28.9,27.4,30.05,NNW,329,0.0,2.0,94,0.00,,,0.01,Wunderground v.1.15,2013-12-18 03:11:00,
2013-12-17 19:12:00,28.9,27.4,30.05,NNW,329,0.0,2.0,94,0.00,,,0.01,Wunderground v.1.15,2013-12-18 03:12:00,
2013-12-17 19:13:00,28.9,27.4,30.05,NNW,329,0.0,2.0,94,0.00,,,0.01,Wunderground v.1.15,2013-12-18 03:13:00,
2013-12-17 19:14:00,28.9,27.4,30.05,NNW,329,1.0,2.0,94,0.00,,,0.01,Wunderground v.1.15,2013-12-18 03:14:00,
2013-12-17 19:16:00,28.9,27.6,30.05,NNW,329,0.0,2.0,95,0.00,,,0.01,Wunderground v.1.15,2013-12-18 03:16:00,
2013-12-17 19:17:00,28.9,27.6,30.05,NNW,329,0.0,2.0,95,0.00,,,0.01,Wunderground v.1.15,2013-12-18 03:17:00,
2013-12-17 19:18:00,28.9,27.6,30.05,NNW,329,0.0,2.0,95,0.00,,,0.01,Wunderground v.1.15,2013-12-18 03:18:00,
2013-12-17 19:19:00,28.9,27.6,30.05,NNW,329,0.0,0.0,95,0.00,,,0.01,Wunderground v.1.15,2013-12-18 03:19:00,
2013-12-17 19:21:00,28.9,27.6,30.05,NNW,329,0.0,0.0,95,0.00,,,0.01,Wunderground v.1.15,2013-12-18 03:21:00,
2013-12-17 19:22:00,28.9,27.6,30.05,NNW,329,0.0,0.0,95,0.00,,,0.01,Wunderground v.1.15,2013-12-18 03:22:00,
2013-12-17 19:23:00,28.9,27.6,30.05,NNW,329,0.0,0.0,95,0.00,,,0.01,Wunderground v.1.15,2013-12-18 03:23:00,
2013-12-17 19:24:00,28.8,27.5,30.05,NNW,329,0.0,0.0,95,0.00,,,0.01,Wunderground v.1.15,2013-12-18 03:24:00,
2013-12-17 19:26:00,28.8,27.5,30.05,NNW,329,0.0,1.0,95,0.00,,,0.01,Wunderground v.1.15,2013-12-18 03:26:00,
2013-12-17 19:27:00,28.9,27.6,30.05,NNW,329,0.0,1.0,95,0.00,,,0.01,Wunderground v.1.15,2013-12-18 03:27:00,
2013-12-17 19:28:00,28.8,27.5,30.05,NNW,329,0.0,1.0,95,0.00,,,0.01,Wunderground v.1.15,2013-12-18 03:28:00,
2013-12-17 19:29:00,28.9,27.6,30.05,NNW,329,0.0,0.0,95,0.00,,,0.01,Wunderground v.1.15,2013-12-18 03:29:00,
2013-12-17 19:31:00,28.9,27.6,30.05,NNW,329,0.0,2.0,95,0.00,,,0.01,Wunderground v.1.15,2013-12-18 03:31:00,
2013-12-17 19:32:00,28.8,27.5,30.05,NNW,329,0.0,2.0,95,0.00,,,0.01,Wunderground v.1.15,2013-12-18 03:32:00,
2013-12-17 19:33:00,28.8,27.5,30.05,NNW,329,1.0,2.0,95,0.00,,,0.01,Wunderground v.1.15,2013-12-18 03:33:00,
2013-12-17 19:34:00,28.8,27.5,30.05,NNW,329,0.0,2.0,95,0.00,,,0.01,Wunderground v.1.15,2013-12-18 03:34:00,
2013-12-17 19:35:00,28.8,27.5,30.05,NNW,329,2.0,2.0,95,0.00,,,0.01,Wunderground v.1.15,2013-12-18 03:35:00,
2013-12-17 19:37:00,28.7,27.4,30.05,NNW,329,2.0,3.0,95,0.00,,,0.01,Wunderground v.1.15,2013-12-18 03:37:00,
2013-12-17 19:38:00,28.7,27.4,30.05,NNW,329,2.0,3.0,95,0.00,,,0.01,Wunderground v.1.15,2013-12-18 03:38:00,
2013-12-17 19:39:00,28.7,27.4,30.05,NNW,329,2.0,3.0,95,0.00,,,0.01,Wunderground v.1.15,2013-12-18 03:39:00,
2013-12-17 19:40:00,28.7,27.4,30.05,NNW,329,3.0,4.0,95,0.00,,,0.01,Wunderground v.1.15,2013-12-18 03:40:00,
2013-12-17 19:42:00,28.6,27.4,30.05,NNW,329,2.0,5.0,95,0.00,,,0.01,Wunderground v.1.15,2013-12-18 03:42:00,
2013-12-17 19:43:00,28.6,27.4,30.05,NNW,329,2.0,5.0,95,0.00,,,0.01,Wunderground v.1.15,2013-12-18 03:43:00,
2013-12-17 19:44:00,28.6,27.4,30.05,NNW,329,2.0,5.0,95,0.00,,,0.01,Wunderground v.1.15,2013-12-18 03:44:00,
2013-12-17 19:45:00,28.5,27.3,30.05,NNW,329,0.0,5.0,95,0.00,,,0.01,Wunderground v.1.15,2013-12-18 03:45:00,
2013-12-17 19:47:00,28.5,27.3,30.05,NNW,329,1.0,5.0,95,0.00,,,0.01,Wunderground v.1.15,2013-12-18 03:47:00,
2013-12-17 19:48:00,28.5,27.3,30.05,NNW,329,1.0,5.0,95,0.00,,,0.01,Wunderground v.1.15,2013-12-18 03:48:00,
2013-12-17 19:49:00,28.3,27.1,30.04,NNW,329,2.0,2.0,95,0.00,,,0.01,Wunderground v.1.15,2013-12-18 03:49:00,
2013-12-17 19:51:00,27.9,26.7,30.05,NNW,329,1.0,2.0,95,0.00,,,0.01,Wunderground v.1.15,2013-12-18 03:51:00,
2013-12-17 19:52:00,27.5,26.0,30.05,NNW,329,2.0,2.0,94,0.00,,,0.01,Wunderground v.1.15,2013-12-18 03:52:00,
2013-12-17 19:53:00,27.4,25.9,30.05,NNW,329,1.0,2.0,94,0.00,,,0.01,Wunderground v.1.15,2013-12-18 03:53:00,
2013-12-17 19:54:00,27.1,25.6,30.05,NNW,329,1.0,2.0,94,0.00,,,0.01,Wunderground v.1.15,2013-12-18 03:54:00,
2013-12-17 19:56:00,26.9,25.4,30.05,NNW,329,1.0,2.0,94,0.00,,,0.01,Wunderground v.1.15,2013-12-18 03:56:00,
2013-12-17 19:57:00,26.8,25.3,30.04,NNW,329,1.0,2.0,94,0.00,,,0.01,Wunderground v.1.15,2013-12-18 03:57:00,
2013-12-17 19:58:00,26.8,25.3,30.04,NNW,329,0.0,2.0,94,0.00,,,0.01,Wunderground v.1.15,2013-12-18 03:58:00,
2013-12-17 19:59:00,26.9,25.4,30.04,NNW,329,0.0,2.0,94,0.00,,,0.01,Wunderground v.1.15,2013-12-18 03:59:00,
2013-12-17 20:00:00,27.0,25.5,30.04,NNW,329,0.0,2.0,94,0.00,,,0.01,Wunderground v.1.15,2013-12-18 04:00:00,
2013-12-17 20:01:00,27.1,25.6,30.04,NNW,329,0.0,2.0,94,0.00,,,0.01,Wunderground v.1.15,2013-12-18 04:01:00,
2013-12-17 20:03:00,27.2,25.7,30.04,NNW,329,1.0,2.0,94,0.00,,,0.01,Wunderground v.1.15,2013-12-18 04:03:00,
2013-12-17 20:04:00,27.3,25.8,30.04,NNW,329,1.0,2.0,94,0.00,,,0.01,Wunderground v.1.15,2013-12-18 04:04:00,
2013-12-17 20:05:00,27.4,26.2,30.04,NNW,329,1.0,2.0,95,0.00,,,0.01,Wunderground v.1.15,2013-12-18 04:05:00,
2013-12-17 20:06:00,27.3,25.8,30.04,NNW,329,2.0,2.0,94,0.00,,,0.01,Wunderground v.1.15,2013-12-18 04:06:00,
2013-12-17 20:08:00,27.2,26.0,30.04,NNW,329,1.0,2.0,95,0.00,,,0.01,Wunderground v.1.15,2013-12-18 04:08:00,
2013-12-17 20:09:00,27.1,25.9,30.04,NNW,329,2.0,2.0,95,0.00,,,0.01,Wunderground v.1.15,2013-12-18 04:09:00,
2013-12-17 20:10:00,27.0,25.8,30.03,NNW,329,2.0,3.0,95,0.00,,,0.01,Wunderground v.1.15,2013-12-18 04:10:00,
2013-12-17 20:11:00,27.0,25.8,30.03,NNW,329,2.0,3.0,95,0.00,,,0.01,Wunderground v.1.15,2013-12-18 04:11:00,
2013-12-17 20:13:00,26.9,25.7,30.03,NNW,329,3.0,3.0,95,0.00,,,0.01,Wunderground v.1.15,2013-12-18 04:13:00,
2013-12-17 20:14:00,26.8,25.6,30.03,NNW,329,2.0,3.0,95,0.00,,,0.01,Wunderground v.1.15,2013-12-18 04:14:00,
2013-12-17 20:15:00,26.7,25.5,30.03,NNW,329,0.0,3.0,95,0.00,,,0.01,Wunderground v.1.15,2013-12-18 04:15:00,
2013-12-17 20:16:00,26.6,25.1,30.03,NNW,329,0.0,3.0,94,0.00,,,0.01,Wunderground v.1.15,2013-12-18 04:16:00,
2013-12-17 20:17:00,26.6,25.1,30.03,NNW,329,0.0,3.0,94,0.00,,,0.01,Wunderground v.1.15,2013-12-18 04:17:00,
2013-12-17 20:18:00,26.6,25.1,30.03,NNW,329,0.0,3.0,94,0.00,,,0.01,Wunderground v.1.15,2013-12-18 04:18:00,
2013-12-17 20:19:00,26.7,25.2,30.03,NNW,329,0.0,1.0,94,0.00,,,0.01,Wunderground v.1.15,2013-12-18 04:19:00,
2013-12-17 20:20:00,26.7,25.2,30.03,NNW,329,0.0,1.0,94,0.00,,,0.01,Wunderground v.1.15,2013-12-18 04:20:00,
2013-12-17 20:21:00,26.7,25.5,30.03,NNW,329,0.0,1.0,95,0.00,,,0.01,Wunderground v.1.15,2013-12-18 04:21:00,
2013-12-17 20:22:00,26.7,25.5,30.03,NNW,329,0.0,1.0,95,0.00,,,0.01,Wunderground v.1.15,2013-12-18 04:22:00,
2013-12-17 20:23:00,26.7,25.5,30.02,NNW,329,0.0,1.0,95,0.00,,,0.01,Wunderground v.1.15,2013-12-18 04:23:00,
2013-12-17 20:24:00,26.7,25.5,30.03,NNW,329,0.0,1.0,95,0.00,,,0.01,Wunderground v.1.15,2013-12-18 04:24:00,
2013-12-17 20:25:00,26.7,25.5,30.03,NNW,329,0.0,1.0,95,0.00,,,0.01,Wunderground v.1.15,2013-12-18 04:25:00,
2013-12-17 20:27:00,26.7,25.5,30.02,NNW,329,0.0,1.0,95,0.00,,,0.01,Wunderground v.1.15,2013-12-18 04:27:00,
2013-12-17 20:28:00,26.7,25.5,30.02,NNW,329,1.0,2.0,95,0.00,,,0.01,Wunderground v.1.15,2013-12-18 04:28:00,
2013-12-17 20:30:00,26.6,25.4,30.03,NNW,329,2.0,2.0,95,0.00,,,0.01,Wunderground v.1.15,2013-12-18 04:30:00,
2013-12-17 20:32:00,26.5,25.3,30.03,NNW,329,2.0,3.0,95,0.00,,,0.01,Wunderground v.1.15,2013-12-18 04:32:00,
2013-12-17 20:33:00,26.3,25.1,30.03,NNW,329,1.0,3.0,95,0.00,,,0.01,Wunderground v.1.15,2013-12-18 04:33:00,
2013-12-17 20:35:00,26.2,25.0,30.03,NNW,329,1.0,3.0,95,0.00,,,0.01,Wunderground v.1.15,2013-12-18 04:35:00,
2013-12-17 20:37:00,26.0,24.5,30.03,NNW,329,1.0,3.0,94,0.00,,,0.01,Wunderground v.1.15,2013-12-18 04:37:00,
2013-12-17 20:38:00,25.9,24.4,30.03,NNW,329,1.0,3.0,94,0.00,,,0.01,Wunderground v.1.15,2013-12-18 04:38:00,
2013-12-17 20:40:00,25.8,24.3,30.02,NNW,329,0.0,2.0,94,0.00,,,0.01,Wunderground v.1.15,2013-12-18 04:40:00,
2013-12-17 20:42:00,25.6,24.1,30.02,NNW,329,0.0,2.0,94,0.00,,,0.01,Wunderground v.1.15,2013-12-18 04:42:00,
2013-12-17 20:43:00,25.6,24.1,30.03,NNW,329,0.0,2.0,94,0.00,,,0.01,Wunderground v.1.15,2013-12-18 04:43:00,
2013-12-17 20:44:00,25.6,24.1,30.02,NNW,329,1.0,2.0,94,0.00,,,0.01,Wunderground v.1.15,2013-12-18 04:44:00,
2013-12-17 20:45:00,25.6,24.1,30.02,NNW,329,0.0,2.0,94,0.00,,,0.01,Wunderground v.1.15,2013-12-18 04:45:00,
2013-12-17 20:48:00,25.7,24.5,30.03,NNW,329,1.0,2.0,95,0.00,,,0.01,Wunderground v.1.15,2013-12-18 04:48:00,
2013-12-17 20:49:00,25.7,24.5,30.03,NNW,329,1.0,1.0,95,0.00,,,0.01,Wunderground v.1.15,2013-12-18 04:49:00,
2013-12-17 20:50:00,25.6,24.1,30.03,NNW,329,0.0,1.0,94,0.00,,,0.01,Wunderground v.1.15,2013-12-18 04:50:00,
2013-12-17 20:53:00,25.4,23.9,30.03,NNW,329,0.0,1.0,94,0.00,,,0.01,Wunderground v.1.15,2013-12-18 04:53:00,
2013-12-17 20:54:00,25.3,23.8,30.03,NNW,329,0.0,1.0,94,0.00,,,0.01,Wunderground v.1.15,2013-12-18 04:54:00,
2013-12-17 20:55:00,25.2,23.7,30.03,NNW,329,2.0,2.0,94,0.00,,,0.01,Wunderground v.1.15,2013-12-18 04:55:00,
2013-12-17 20:56:00,25.2,23.7,30.03,NNW,329,2.0,3.0,94,0.00,,,0.01,Wunderground v.1.15,2013-12-18 04:56:00,
2013-12-17 20:58:00,25.1,23.6,30.03,NNW,329,1.0,3.0,94,0.00,,,0.01,Wunderground v.1.15,2013-12-18 04:58:00,
2013-12-17 20:59:00,25.1,23.6,30.03,NNW,329,1.0,3.0,94,0.00,,,0.01,Wunderground v.1.15,2013-12-18 04:59:00,
2013-12-17 21:00:00,25.1,23.6,30.03,NNW,329,0.0,1.0,94,0.00,,,0.01,Wunderground v.1.15,2013-12-18 05:00:00,
2013-12-17 21:01:00,25.1,23.6,30.03,NNW,329,0.0,1.0,94,0.00,,,0.01,Wunderground v.1.15,2013-12-18 05:01:00,
2013-12-17 21:06:00,25.8,24.6,30.02,NNW,329,0.0,1.0,95,0.00,,,0.01,Wunderground v.1.15,2013-12-18 05:06:00,
2013-12-17 21:11:00,25.8,24.6,30.02,NNW,329,0.0,1.0,95,0.00,,,0.01,Wunderground v.1.15,2013-12-18 05:11:00,
2013-12-17 21:16:00,25.2,24.0,30.02,NNW,329,1.0,2.0,95,0.00,,,0.01,Wunderground v.1.15,2013-12-18 05:16:00,
2013-12-17 21:17:00,24.9,23.4,30.02,NNW,329,1.0,2.0,94,0.00,,,0.01,Wunderground v.1.15,2013-12-18 05:17:00,
2013-12-17 21:21:00,24.5,23.0,30.02,NNW,329,2.0,2.0,94,0.00,,,0.01,Wunderground v.1.15,2013-12-18 05:21:00,
2013-12-17 21:22:00,24.4,22.9,30.02,NNW,329,2.0,2.0,94,0.00,,,0.01,Wunderground v.1.15,2013-12-18 05:22:00,
2013-12-17 21:23:00,24.3,22.8,30.02,NNW,329,1.0,2.0,94,0.00,,,0.01,Wunderground v.1.15,2013-12-18 05:23:00,
2013-12-17 21:26:00,24.0,22.5,30.03,NNW,329,1.0,2.0,94,0.00,,,0.01,Wunderground v.1.15,2013-12-18 05:26:00,
2013-12-17 21:27:00,24.0,22.5,30.03,NNW,329,2.0,2.0,94,0.00,,,0.01,Wunderground v.1.15,2013-12-18 05:27:00,
2013-12-17 21:29:00,23.9,22.4,30.03,NNW,329,2.0,3.0,94,0.00,,,0.01,Wunderground v.1.15,2013-12-18 05:29:00,
2013-12-17 21:31:00,23.9,22.4,30.03,NNW,329,0.0,3.0,94,0.00,,,0.01,Wunderground v.1.15,2013-12-18 05:31:00,
2013-12-17 21:32:00,23.9,22.4,30.03,NNW,329,1.0,3.0,94,0.00,,,0.01,Wunderground v.1.15,2013-12-18 05:32:00,
2013-12-17 21:33:00,24.0,22.5,30.03,NNW,329,2.0,3.0,94,0.00,,,0.01,Wunderground v.1.15,2013-12-18 05:33:00,
2013-12-17 21:34:00,24.0,22.5,30.03,NNW,329,0.0,3.0,94,0.00,,,0.01,Wunderground v.1.15,2013-12-18 05:34:00,
2013-12-17 21:36:00,24.1,22.6,30.03,NNW,329,0.0,3.0,94,0.00,,,0.01,Wunderground v.1.15,2013-12-18 05:36:00,
2013-12-17 21:37:00,24.1,22.6,30.03,NNW,329,0.0,3.0,94,0.00,,,0.01,Wunderground v.1.15,2013-12-18 05:37:00,
2013-12-17 21:38:00,24.2,22.7,30.03,NNW,329,0.0,3.0,94,0.00,,,0.01,Wunderground v.1.15,2013-12-18 05:38:00,
2013-12-17 21:39:00,24.5,23.0,30.03,NNW,329,0.0,0.0,94,0.00,,,0.01,Wunderground v.1.15,2013-12-18 05:39:00,
2013-12-17 21:41:00,25.1,23.9,30.03,NNW,329,0.0,0.0,95,0.00,,,0.01,Wunderground v.1.15,2013-12-18 05:41:00,
2013-12-17 21:42:00,25.2,24.0,30.03,NNW,329,0.0,0.0,95,0.00,,,0.01,Wunderground v.1.15,2013-12-18 05:42:00,
2013-12-17 21:43:00,25.3,24.1,30.03,NNW,329,0.0,0.0,95,0.00,,,0.01,Wunderground v.1.15,2013-12-18 05:43:00,
2013-12-17 21:44:00,25.4,24.2,30.03,NNW,329,0.0,0.0,95,0.00,,,0.01,Wunderground v.1.15,2013-12-18 05:44:00,
2013-12-17 21:46:00,25.7,24.5,30.03,NNW,329,0.0,0.0,95,0.00,,,0.01,Wunderground v.1.15,2013-12-18 05:46:00,
2013-12-17 21:48:00,25.6,24.4,30.03,NNW,329,1.0,1.0,95,0.00,,,0.01,Wunderground v.1.15,2013-12-18 05:48:00,
2013-12-17 21:49:00,25.4,24.2,30.03,NNW,329,1.0,2.0,95,0.00,,,0.01,Wunderground v.1.15,2013-12-18 05:49:00,
2013-12-17 21:51:00,24.9,23.7,30.03,NNW,329,0.0,2.0,95,0.00,,,0.01,Wunderground v.1.15,2013-12-18 05:51:00,
2013-12-17 21:53:00,24.7,23.5,30.03,NNW,329,0.0,2.0,95,0.00,,,0.01,Wunderground v.1.15,2013-12-18 05:53:00,
2013-12-17 21:54:00,24.6,23.4,30.03,NNW,329,1.0,2.0,95,0.00,,,0.01,Wunderground v.1.15,2013-12-18 05:54:00,
2013-12-17 21:56:00,24.3,22.8,30.03,NNW,329,0.0,2.0,94,0.00,,,0.01,Wunderground v.1.15,2013-12-18 05:56:00,
2013-12-17 21:58:00,24.3,22.8,30.03,NNW,329,0.0,2.0,94,0.00,,,0.01,Wunderground v.1.15,2013-12-18 05:58:00,
2013-12-17 21:59:00,24.4,22.9,30.03,NNW,329,0.0,0.0,94,0.00,,,0.01,Wunderground v.1.15,2013-12-18 05:59:00,
2013-12-17 22:01:00,25.1,23.6,30.03,NNW,329,0.0,0.0,94,0.00,,,0.01,Wunderground v.1.15,2013-12-18 06:01:00,
2013-12-17 22:03:00,25.2,24.0,30.03,NNW,329,0.0,0.0,95,0.00,,,0.01,Wunderground v.1.15,2013-12-18 06:03:00,
2013-12-17 22:04:00,25.1,23.9,30.03,NNW,329,0.0,0.0,95,0.00,,,0.01,Wunderground v.1.15,2013-12-18 06:04:00,
2013-12-17 22:05:00,25.0,23.8,30.03,NNW,329,0.0,0.0,95,0.00,,,0.01,Wunderground v.1.15,2013-12-18 06:05:00,
2013-12-17 22:06:00,24.7,23.2,30.03,NNW,329,0.0,0.0,94,0.00,,,0.01,Wunderground v.1.15,2013-12-18 06:06:00,
2013-12-17 22:08:00,24.4,22.9,30.03,NNW,329,0.0,0.0,94,0.00,,,0.01,Wunderground v.1.15,2013-12-18 06:08:00,
2013-12-17 22:09:00,24.2,22.7,30.02,NNW,329,1.0,1.0,94,0.00,,,0.01,Wunderground v.1.15,2013-12-18 06:09:00,
2013-12-17 22:10:00,24.1,22.6,30.02,NNW,329,0.0,1.0,94,0.00,,,0.01,Wunderground v.1.15,2013-12-18 06:10:00,
2013-12-17 22:12:00,23.9,22.4,30.02,NNW,329,0.0,1.0,94,0.00,,,0.01,Wunderground v.1.15,2013-12-18 06:12:00,
2013-12-17 22:13:00,23.7,22.2,30.02,NNW,329,1.0,2.0,94,0.00,,,0.01,Wunderground v.1.15,2013-12-18 06:13:00,
2013-12-17 22:14:00,23.6,22.1,30.02,NNW,329,0.0,2.0,94,0.00,,,0.01,Wunderground v.1.15,2013-12-18 06:14:00,
2013-12-17 22:15:00,23.6,22.1,30.02,NNW,329,0.0,2.0,94,0.00,,,0.01,Wunderground v.1.15,2013-12-18 06:15:00,
2013-12-17 22:16:00,23.5,22.0,30.02,NNW,329,1.0,2.0,94,0.00,,,0.01,Wunderground v.1.15,2013-12-18 06:16:00,
2013-12-17 22:17:00,23.5,22.0,30.02,NNW,329,2.0,2.0,94,0.00,,,0.01,Wunderground v.1.15,2013-12-18 06:17:00,
2013-12-17 22:18:00,23.4,21.9,30.02,NNW,329,2.0,2.0,94,0.00,,,0.01,Wunderground v.1.15,2013-12-18 06:18:00,
2013-12-17 22:19:00,23.4,21.9,30.02,NNW,329,2.0,2.0,94,0.00,,,0.01,Wunderground v.1.15,2013-12-18 06:19:00,
2013-12-17 22:20:00,23.3,21.8,30.02,NNW,329,1.0,2.0,94,0.00,,,0.01,Wunderground v.1.15,2013-12-18 06:20:00,
2013-12-17 22:21:00,23.2,21.7,30.02,NNW,329,0.0,2.0,94,0.00,,,0.01,Wunderground v.1.15,2013-12-18 06:21:00,
2013-12-17 22:22:00,23.1,21.6,30.02,NNW,329,0.0,2.0,94,0.00,,,0.01,Wunderground v.1.15,2013-12-18 06:22:00,
2013-12-17 22:23:00,23.1,21.6,30.02,NNW,329,1.0,2.0,94,0.00,,,0.01,Wunderground v.1.15,2013-12-18 06:23:00,
2013-12-17 22:24:00,23.0,21.5,30.02,NNW,329,0.0,2.0,94,0.00,,,0.01,Wunderground v.1.15,2013-12-18 06:24:00,
2013-12-17 22:25:00,23.0,21.5,30.02,NNW,329,0.0,2.0,94,0.00,,,0.01,Wunderground v.1.15,2013-12-18 06:25:00,
2013-12-17 22:26:00,23.0,21.5,30.02,NNW,329,0.0,2.0,94,0.00,,,0.01,Wunderground v.1.15,2013-12-18 06:26:00,
2013-12-17 22:27:00,23.0,21.5,30.02,NNW,329,0.0,2.0,94,0.00,,,0.01,Wunderground v.1.15,2013-12-18 06:27:00,
2013-12-17 22:28:00,22.9,21.4,30.02,NNW,329,2.0,2.0,94,0.00,,,0.01,Wunderground v.1.15,2013-12-18 06:28:00,
2013-12-17 22:29:00,22.9,21.4,30.02,NNW,329,1.0,2.0,94,0.00,,,0.01,Wunderground v.1.15,2013-12-18 06:29:00,
2013-12-17 22:30:00,22.8,21.3,30.02,NNW,329,0.0,2.0,94,0.00,,,0.01,Wunderground v.1.15,2013-12-18 06:30:00,
2013-12-17 22:31:00,22.8,21.3,30.02,NNW,329,0.0,2.0,94,0.00,,,0.01,Wunderground v.1.15,2013-12-18 06:31:00,
2013-12-17 22:32:00,22.7,21.2,30.02,NNW,329,1.0,2.0,94,0.00,,,0.01,Wunderground v.1.15,2013-12-18 06:32:00,
2013-12-17 22:34:00,22.7,21.2,30.02,NNW,329,1.0,2.0,94,0.00,,,0.01,Wunderground v.1.15,2013-12-18 06:34:00,
2013-12-17 22:35:00,22.7,21.2,30.02,NNW,329,0.0,2.0,94,0.00,,,0.01,Wunderground v.1.15,2013-12-18 06:35:00,
2013-12-17 22:36:00,22.7,21.2,30.02,NNW,329,0.0,2.0,94,0.00,,,0.01,Wunderground v.1.15,2013-12-18 06:36:00,
2013-12-17 22:37:00,22.7,21.2,30.02,NNW,329,0.0,2.0,94,0.00,,,0.01,Wunderground v.1.15,2013-12-18 06:37:00,
2013-12-17 22:39:00,22.5,21.0,30.02,NNW,329,1.0,2.0,94,0.00,,,0.01,Wunderground v.1.15,2013-12-18 06:39:00,
2013-12-17 22:41:00,22.5,21.0,30.02,NNW,329,1.0,2.0,94,0.00,,,0.01,Wunderground v.1.15,2013-12-18 06:41:00,
2013-12-17 22:42:00,22.5,21.0,30.02,NNW,329,3.0,3.0,94,0.00,,,0.01,Wunderground v.1.15,2013-12-18 06:42:00,
2013-12-17 22:44:00,22.5,21.0,30.02,NNW,329,2.0,3.0,94,0.00,,,0.01,Wunderground v.1.15,2013-12-18 06:44:00,
2013-12-17 22:45:00,22.4,20.9,30.02,NNW,329,3.0,3.0,94,0.00,,,0.01,Wunderground v.1.15,2013-12-18 06:45:00,
2013-12-17 22:46:00,22.4,20.9,30.02,NNW,329,2.0,3.0,94,0.00,,,0.01,Wunderground v.1.15,2013-12-18 06:46:00,
2013-12-17 22:47:00,22.4,20.9,30.02,NNW,329,0.0,3.0,94,0.00,,,0.01,Wunderground v.1.15,2013-12-18 06:47:00,
2013-12-17 22:48:00,22.3,20.8,30.02,NNW,329,0.0,3.0,94,0.00,,,0.01,Wunderground v.1.15,2013-12-18 06:48:00,
2013-12-17 22:49:00,22.2,20.7,30.02,NNW,329,3.0,3.0,94,0.00,,,0.01,Wunderground v.1.15,2013-12-18 06:49:00,
2013-12-17 22:50:00,22.2,20.7,30.02,NNW,329,4.0,4.0,94,0.00,,,0.01,Wunderground v.1.15,2013-12-18 06:50:00,
2013-12-17 22:51:00,22.2,20.7,30.02,NNW,329,4.0,4.0,94,0.00,,,0.01,Wunderground v.1.15,2013-12-18 06:51:00,
2013-12-17 22:52:00,22.1,20.6,30.02,NNW,329,1.0,4.0,94,0.00,,,0.01,Wunderground v.1.15,2013-12-18 06:52:00,
2013-12-17 22:54:00,22.1,20.6,30.02,NNW,329,3.0,4.0,94,0.00,,,0.01,Wunderground v.1.15,2013-12-18 06:54:00,
2013-12-17 22:55:00,22.0,20.3,30.02,NNW,329,2.0,4.0,93,0.00,,,0.01,Wunderground v.1.15,2013-12-18 06:55:00,
2013-12-17 22:56:00,22.0,20.3,30.02,NNW,329,2.0,4.0,93,0.00,,,0.01,Wunderground v.1.15,2013-12-18 06:56:00,
2013-12-17 22:57:00,22.0,20.3,30.02,NNW,329,1.0,4.0,93,0.00,,,0.01,Wunderground v.1.15,2013-12-18 06:57:00,
2013-12-17 22:59:00,21.9,20.2,30.02,NNW,329,1.0,2.0,93,0.00,,,0.01,Wunderground v.1.15,2013-12-18 06:59:00,
2013-12-17 23:00:00,21.9,20.2,30.02,NNW,329,3.0,3.0,93,0.00,,,0.01,Wunderground v.1.15,2013-12-18 07:00:00,
2013-12-17 23:01:00,21.8,20.1,30.02,NNW,329,2.0,3.0,93,0.00,,,0.01,Wunderground v.1.15,2013-12-18 07:01:00,
2013-12-17 23:02:00,21.8,20.1,30.02,NNW,329,2.0,3.0,93,0.00,,,0.01,Wunderground v.1.15,2013-12-18 07:02:00,
2013-12-17 23:04:00,21.7,20.0,30.02,NNW,329,2.0,3.0,93,0.00,,,0.01,Wunderground v.1.15,2013-12-18 07:04:00,
2013-12-17 23:05:00,21.6,19.9,30.02,NNW,329,3.0,4.0,93,0.00,,,0.01,Wunderground v.1.15,2013-12-18 07:05:00,
2013-12-17 23:07:00,21.5,19.8,30.02,North,5,4.0,4.0,93,0.00,,,0.01,Wunderground v.1.15,2013-12-18 07:07:00,
2013-12-17 23:08:00,21.5,19.8,30.02,NNE,17,3.0,4.0,93,0.00,,,0.01,Wunderground v.1.15,2013-12-18 07:08:00,
2013-12-17 23:09:00,21.4,19.7,30.02,NNE,32,4.0,5.0,93,0.00,,,0.01,Wunderground v.1.15,2013-12-18 07:09:00,
2013-12-17 23:10:00,21.4,19.7,30.02,NE,34,4.0,6.0,93,0.00,,,0.01,Wunderground v.1.15,2013-12-18 07:10:00,
2013-12-17 23:11:00,21.4,19.7,30.02,NE,34,4.0,6.0,93,0.00,,,0.01,Wunderground v.1.15,2013-12-18 07:11:00,
2013-12-17 23:12:00,21.4,19.7,30.02,NE,34,4.0,6.0,93,0.00,,,0.01,Wunderground v.1.15,2013-12-18 07:12:00,
2013-12-17 23:13:00,21.4,19.7,30.02,NE,34,4.0,6.0,93,0.00,,,0.01,Wunderground v.1.15,2013-12-18 07:13:00,
2013-12-17 23:15:00,21.4,19.7,30.02,NE,34,4.0,6.0,93,0.00,,,0.01,Wunderground v.1.15,2013-12-18 07:15:00,
2013-12-17 23:16:00,21.2,19.5,30.02,NE,34,4.0,6.0,93,0.00,,,0.01,Wunderground v.1.15,2013-12-18 07:16:00,
2013-12-17 23:17:00,21.2,19.5,30.02,NE,34,3.0,6.0,93,0.00,,,0.01,Wunderground v.1.15,2013-12-18 07:17:00,
2013-12-17 23:18:00,21.1,19.4,30.02,NE,34,3.0,6.0,93,0.00,,,0.01,Wunderground v.1.15,2013-12-18 07:18:00,
2013-12-17 23:20:00,21.0,19.3,30.02,NE,34,3.0,5.0,93,0.00,,,0.01,Wunderground v.1.15,2013-12-18 07:20:00,
2013-12-17 23:21:00,20.9,19.2,30.02,NE,34,4.0,5.0,93,0.00,,,0.01,Wunderground v.1.15,2013-12-18 07:21:00,
2013-12-17 23:22:00,20.8,19.1,30.02,NE,34,2.0,5.0,93,0.00,,,0.01,Wunderground v.1.15,2013-12-18 07:22:00,
2013-12-17 23:23:00,20.7,19.0,30.02,NE,34,3.0,5.0,93,0.00,,,0.01,Wunderground v.1.15,2013-12-18 07:23:00,
2013-12-17 23:24:00,20.7,19.0,30.02,NE,34,3.0,5.0,93,0.00,,,0.01,Wunderground v.1.15,2013-12-18 07:24:00,
2013-12-17 23:25:00,20.6,18.9,30.02,NE,34,4.0,5.0,93,0.00,,,0.01,Wunderground v.1.15,2013-12-18 07:25:00,
2013-12-17 23:26:00,20.6,18.9,30.02,NE,34,3.0,5.0,93,0.00,,,0.01,Wunderground v.1.15,2013-12-18 07:26:00,
2013-12-17 23:27:00,20.6,18.9,30.02,NE,34,3.0,5.0,93,0.00,,,0.01,Wunderground v.1.15,2013-12-18 07:27:00,
2013-12-17 23:28:00,20.6,18.9,30.02,NE,34,2.0,5.0,93,0.00,,,0.01,Wunderground v.1.15,2013-12-18 07:28:00,
2013-12-17 23:29:00,20.5,18.8,30.02,NE,34,2.0,3.0,93,0.00,,,0.01,Wunderground v.1.15,2013-12-18 07:29:00,
2013-12-17 23:30:00,20.5,18.8,30.02,NE,34,3.0,4.0,93,0.00,,,0.01,Wunderground v.1.15,2013-12-18 07:30:00,
2013-12-17 23:31:00,20.5,18.8,30.02,NE,34,3.0,4.0,93,0.00,,,0.01,Wunderground v.1.15,2013-12-18 07:31:00,
2013-12-17 23:32:00,20.5,18.8,30.02,NE,34,2.0,4.0,93,0.00,,,0.01,Wunderground v.1.15,2013-12-18 07:32:00,
2013-12-17 23:33:00,20.5,18.8,30.02,NE,34,2.0,4.0,93,0.00,,,0.01,Wunderground v.1.15,2013-12-18 07:33:00,
2013-12-17 23:35:00,20.4,18.7,30.02,NE,34,2.0,4.0,93,0.00,,,0.01,Wunderground v.1.15,2013-12-18 07:35:00,
2013-12-17 23:36:00,20.4,18.7,30.01,NE,34,2.0,4.0,93,0.00,,,0.01,Wunderground v.1.15,2013-12-18 07:36:00,
2013-12-17 23:38:00,20.4,18.7,30.02,NE,34,3.0,4.0,93,0.00,,,0.01,Wunderground v.1.15,2013-12-18 07:38:00,
2013-12-17 23:40:00,20.5,18.8,30.02,NE,34,2.0,3.0,93,0.00,,,0.01,Wunderground v.1.15,2013-12-18 07:40:00,
2013-12-17 23:41:00,20.4,18.7,30.02,NE,34,2.0,3.0,93,0.00,,,0.01,Wunderground v.1.15,2013-12-18 07:41:00,
2013-12-17 23:42:00,20.4,18.7,30.02,NE,34,2.0,3.0,93,0.00,,,0.01,Wunderground v.1.15,2013-12-18 07:42:00,
2013-12-17 23:43:00,20.5,18.8,30.02,NE,34,2.0,3.0,93,0.00,,,0.01,Wunderground v.1.15,2013-12-18 07:43:00,
2013-12-17 23:44:00,20.4,18.7,30.02,NE,34,2.0,3.0,93,0.00,,,0.01,Wunderground v.1.15,2013-12-18 07:44:00,
2013-12-17 23:45:00,20.4,18.7,30.02,NE,34,1.0,3.0,93,0.00,,,0.01,Wunderground v.1.15,2013-12-18 07:45:00,
2013-12-17 23:46:00,20.4,18.7,30.02,NE,34,1.0,3.0,93,0.00,,,0.01,Wunderground v.1.15,2013-12-18 07:46:00,
2013-12-17 23:47:00,20.3,18.6,30.02,NE,34,1.0,3.0,93,0.00,,,0.01,Wunderground v.1.15,2013-12-18 07:47:00,
2013-12-17 23:48:00,20.3,18.6,30.02,NE,34,0.0,3.0,93,0.00,,,0.01,Wunderground v.1.15,2013-12-18 07:48:00,
2013-12-17 23:52:00,20.2,18.5,30.02,NE,34,1.0,1.0,93,0.00,,,0.01,Wunderground v.1.15,2013-12-18 07:52:00,
2013-12-17 23:53:00,20.2,18.5,30.02,NE,34,1.0,1.0,93,0.00,,,0.01,Wunderground v.1.15,2013-12-18 07:53:00,
2013-12-17 23:55:00,20.1,18.4,30.02,NE,34,0.0,1.0,93,0.00,,,0.01,Wunderground v.1.15,2013-12-18 07:55:00,
2013-12-17 23:56:00,20.1,18.4,30.02,NE,34,0.0,1.0,93,0.00,,,0.01,Wunderground v.1.15,2013-12-18 07:56:00,
2013-12-17 23:58:00,20.1,18.4,30.02,NE,34,1.0,1.0,93,0.00,,,0.01,Wunderground v.1.15,2013-12-18 07:58:00,
2013-12-17 23:59:00,20.1,18.4,30.02,NE,34,0.0,0.0,93,0.00,,,0.00,Wunderground v.1.15,2013-12-18 07:59:00,